VIR24M KLAX-EGLL
Flight info
| Callsign | VIR24M |
|---|---|
| Flight time | 9h 44m |
| Altitude | 35000 |
| Route | DOTSS2 CLEEE DCT PKE DCT HIDAT DCT KA27O DCT NABOB DCT KA27S DCT KA33W DCT KK39A DCT KK51G DCT KK54I DCT KG66O DCT GADAV DCT ANCER/N0481F370 N795B JANJO/M084F380 NATT KESIX/N0484F390 DCT LUTOV DCT NIPIT DCT BOFUM Q37 MALUD Q38 NUGRA |
| Aircraft | A35K/H-SDE2E3GHIJ3J4J5LM1ORWXY/LB1D1 |
Departure
| Time | 2026-05-06 23:16 |
|---|---|
| Airport | Los Angeles International Airport (KLAX) |
Arrival
| Time | 2026-05-07 09:00 |
|---|---|
| Airport | London Heathrow Airport (EGLL) |
| Time | Latitude | Longitude | Altitude | Speed | Heading |
|---|---|---|---|---|---|
| 2026-05-06 22:27 | 33.94087 | -118.40939 | 99 ft | 0 kts | 263° |
| 2026-05-06 22:59 | 33.94090 | -118.40914 | 98 ft | 3 kts | 263° |
| 2026-05-06 22:59 | 33.94094 | -118.40888 | 97 ft | 4 kts | 251° |
| 2026-05-06 22:59 | 33.94105 | -118.40860 | 97 ft | 4 kts | 227° |
| 2026-05-06 22:59 | 33.94126 | -118.40843 | 96 ft | 4 kts | 186° |
| 2026-05-06 23:00 | 33.94130 | -118.40841 | 98 ft | 4 kts | 173° |
| 2026-05-06 23:00 | 33.94103 | -118.40837 | 100 ft | 4 kts | 173° |
| 2026-05-06 23:00 | 33.94076 | -118.40833 | 99 ft | 4 kts | 173° |
| 2026-05-06 23:00 | 33.94049 | -118.40829 | 99 ft | 4 kts | 173° |
| 2026-05-06 23:01 | 33.94022 | -118.40825 | 100 ft | 4 kts | 173° |
| 2026-05-06 23:01 | 33.94009 | -118.40824 | 99 ft | 0 kts | 173° |
| 2026-05-06 23:07 | 33.94001 | -118.40822 | 109 ft | 2 kts | 172° |
| 2026-05-06 23:07 | 33.93981 | -118.40819 | 94 ft | 4 kts | 172° |
| 2026-05-06 23:07 | 33.93949 | -118.40814 | 101 ft | 5 kts | 170° |
| 2026-05-06 23:07 | 33.93909 | -118.40797 | 100 ft | 7 kts | 152° |
| 2026-05-06 23:08 | 33.93865 | -118.40760 | 102 ft | 8 kts | 145° |
| 2026-05-06 23:08 | 33.93821 | -118.40712 | 102 ft | 8 kts | 120° |
| 2026-05-06 23:08 | 33.93814 | -118.40641 | 102 ft | 9 kts | 89° |
| 2026-05-06 23:08 | 33.93820 | -118.40558 | 103 ft | 11 kts | 82° |
| 2026-05-06 23:09 | 33.93830 | -118.40466 | 102 ft | 12 kts | 82° |
| 2026-05-06 23:09 | 33.93841 | -118.40365 | 104 ft | 13 kts | 83° |
| 2026-05-06 23:09 | 33.93852 | -118.40254 | 104 ft | 14 kts | 83° |
| 2026-05-06 23:09 | 33.93865 | -118.40133 | 104 ft | 15 kts | 83° |
| 2026-05-06 23:10 | 33.93879 | -118.40000 | 102 ft | 17 kts | 83° |
| 2026-05-06 23:10 | 33.93893 | -118.39855 | 102 ft | 18 kts | 83° |
| 2026-05-06 23:10 | 33.93904 | -118.39745 | 101 ft | 13 kts | 83° |
| 2026-05-06 23:10 | 33.93916 | -118.39627 | 101 ft | 15 kts | 83° |
| 2026-05-06 23:11 | 33.93930 | -118.39495 | 100 ft | 17 kts | 83° |
| 2026-05-06 23:11 | 33.93945 | -118.39356 | 102 ft | 14 kts | 83° |
| 2026-05-06 23:11 | 33.93953 | -118.39278 | 103 ft | 15 kts | 83° |
| 2026-05-06 23:11 | 33.93966 | -118.39149 | 102 ft | 16 kts | 83° |
| 2026-05-06 23:12 | 33.93980 | -118.39011 | 100 ft | 17 kts | 83° |
| 2026-05-06 23:12 | 33.93995 | -118.38861 | 100 ft | 19 kts | 83° |
| 2026-05-06 23:12 | 33.94012 | -118.38700 | 103 ft | 20 kts | 83° |
| 2026-05-06 23:12 | 33.94025 | -118.38562 | 102 ft | 15 kts | 83° |
| 2026-05-06 23:13 | 33.94037 | -118.38448 | 104 ft | 13 kts | 83° |
| 2026-05-06 23:13 | 33.94049 | -118.38337 | 102 ft | 14 kts | 83° |
| 2026-05-06 23:13 | 33.94062 | -118.38211 | 100 ft | 16 kts | 83° |
| 2026-05-06 23:13 | 33.94073 | -118.38101 | 99 ft | 11 kts | 83° |
| 2026-05-06 23:14 | 33.94068 | -118.38032 | 102 ft | 7 kts | 118° |
| 2026-05-06 23:14 | 33.94022 | -118.38003 | 103 ft | 7 kts | 169° |
| 2026-05-06 23:14 | 33.93993 | -118.38020 | 102 ft | 4 kts | 228° |
| 2026-05-06 23:14 | 33.93984 | -118.38050 | 102 ft | 4 kts | 256° |
| 2026-05-06 23:15 | 33.93974 | -118.38119 | 101 ft | 19 kts | 261° |
| 2026-05-06 23:15 | 33.93933 | -118.38520 | 105 ft | 81 kts | 263° |
| 2026-05-06 23:15 | 33.93839 | -118.39448 | 103 ft | 140 kts | 263° |
| 2026-05-06 23:15 | 33.93710 | -118.40753 | 465 ft | 160 kts | 262° |
| 2026-05-06 23:16 | 33.93555 | -118.42092 | 1112 ft | 163 kts | 260° |
| 2026-05-06 23:16 | 33.93373 | -118.43473 | 1714 ft | 172 kts | 260° |
| 2026-05-06 23:16 | 33.93118 | -118.44925 | 2174 ft | 183 kts | 257° |
| 2026-05-06 23:16 | 33.92698 | -118.46445 | 2441 ft | 203 kts | 242° |
| 2026-05-06 23:17 | 33.91857 | -118.47913 | 2706 ft | 223 kts | 232° |
| 2026-05-06 23:17 | 33.90837 | -118.49450 | 2919 ft | 246 kts | 232° |
| 2026-05-06 23:17 | 33.89707 | -118.51081 | 3274 ft | 261 kts | 229° |
| 2026-05-06 23:17 | 33.88512 | -118.52741 | 3792 ft | 269 kts | 230° |
| 2026-05-06 23:18 | 33.87256 | -118.54426 | 4414 ft | 273 kts | 225° |
| 2026-05-06 23:18 | 33.85647 | -118.55673 | 4917 ft | 282 kts | 199° |
| 2026-05-06 23:18 | 33.83701 | -118.55873 | 5483 ft | 283 kts | 170° |
| 2026-05-06 23:18 | 33.81765 | -118.55398 | 6173 ft | 284 kts | 164° |
| 2026-05-06 23:19 | 33.79837 | -118.54844 | 6795 ft | 288 kts | 163° |
| 2026-05-06 23:19 | 33.77869 | -118.54284 | 7413 ft | 292 kts | 163° |
| 2026-05-06 23:19 | 33.75888 | -118.53734 | 8072 ft | 293 kts | 164° |
| 2026-05-06 23:19 | 33.73901 | -118.53190 | 8320 ft | 290 kts | 163° |
| 2026-05-06 23:20 | 33.71966 | -118.52614 | 8070 ft | 285 kts | 159° |
| 2026-05-06 23:20 | 33.70226 | -118.51493 | 8001 ft | 284 kts | 135° |
| 2026-05-06 23:20 | 33.69041 | -118.49655 | 7998 ft | 278 kts | 111° |
| 2026-05-06 23:20 | 33.68330 | -118.47504 | 7995 ft | 277 kts | 105° |
| 2026-05-06 23:21 | 33.67703 | -118.45316 | 7995 ft | 278 kts | 105° |
| 2026-05-06 23:21 | 33.67072 | -118.43121 | 7998 ft | 278 kts | 105° |
| 2026-05-06 23:21 | 33.66435 | -118.40928 | 7995 ft | 279 kts | 105° |
| 2026-05-06 23:21 | 33.65789 | -118.38728 | 7994 ft | 279 kts | 106° |
| 2026-05-06 23:22 | 33.65142 | -118.36534 | 8095 ft | 280 kts | 106° |
| 2026-05-06 23:22 | 33.64586 | -118.34293 | 8541 ft | 280 kts | 95° |
| 2026-05-06 23:22 | 33.64459 | -118.31986 | 9256 ft | 275 kts | 86° |
| 2026-05-06 23:22 | 33.64462 | -118.29704 | 9965 ft | 273 kts | 85° |
| 2026-05-06 23:23 | 33.64476 | -118.27395 | 10388 ft | 282 kts | 85° |
| 2026-05-06 23:23 | 33.64489 | -118.24985 | 10625 ft | 297 kts | 86° |
| 2026-05-06 23:23 | 33.64498 | -118.22442 | 10858 ft | 311 kts | 86° |
| 2026-05-06 23:23 | 33.64503 | -118.19793 | 11102 ft | 324 kts | 86° |
| 2026-05-06 23:24 | 33.64502 | -118.17038 | 11345 ft | 337 kts | 87° |
| 2026-05-06 23:24 | 33.64497 | -118.14178 | 11573 ft | 348 kts | 87° |
| 2026-05-06 23:24 | 33.64492 | -118.11241 | 11940 ft | 354 kts | 87° |
| 2026-05-06 23:24 | 33.64487 | -118.08265 | 12392 ft | 358 kts | 87° |
| 2026-05-06 23:25 | 33.64482 | -118.05265 | 12838 ft | 362 kts | 87° |
| 2026-05-06 23:25 | 33.64477 | -118.02273 | 13334 ft | 363 kts | 87° |
| 2026-05-06 23:25 | 33.64466 | -117.99229 | 13827 ft | 365 kts | 87° |
| 2026-05-06 23:25 | 33.64457 | -117.96172 | 14240 ft | 368 kts | 87° |
| 2026-05-06 23:26 | 33.64449 | -117.93049 | 14653 ft | 371 kts | 87° |
| 2026-05-06 23:26 | 33.64442 | -117.89985 | 15073 ft | 373 kts | 87° |
| 2026-05-06 23:26 | 33.64434 | -117.86857 | 15497 ft | 376 kts | 87° |
| 2026-05-06 23:26 | 33.64425 | -117.83708 | 15918 ft | 378 kts | 87° |
| 2026-05-06 23:27 | 33.64449 | -117.80550 | 16326 ft | 380 kts | 84° |
| 2026-05-06 23:27 | 33.64813 | -117.77421 | 16751 ft | 379 kts | 76° |
| 2026-05-06 23:27 | 33.65393 | -117.74323 | 17202 ft | 381 kts | 74° |
| 2026-05-06 23:27 | 33.66002 | -117.71217 | 17592 ft | 383 kts | 74° |
| 2026-05-06 23:28 | 33.66611 | -117.68095 | 18028 ft | 385 kts | 74° |
| 2026-05-06 23:28 | 33.67221 | -117.64948 | 18400 ft | 388 kts | 74° |
| 2026-05-06 23:28 | 33.67832 | -117.61782 | 18738 ft | 390 kts | 74° |
| 2026-05-06 23:28 | 33.68444 | -117.58601 | 19113 ft | 392 kts | 74° |
| 2026-05-06 23:29 | 33.69060 | -117.55402 | 19491 ft | 395 kts | 74° |
| 2026-05-06 23:29 | 33.69679 | -117.52182 | 19834 ft | 396 kts | 74° |
| 2026-05-06 23:29 | 33.70298 | -117.48943 | 20197 ft | 399 kts | 74° |
| 2026-05-06 23:29 | 33.70919 | -117.45683 | 20573 ft | 401 kts | 74° |
| 2026-05-06 23:30 | 33.71538 | -117.42417 | 20961 ft | 403 kts | 74° |
| 2026-05-06 23:30 | 33.72162 | -117.39127 | 21322 ft | 405 kts | 74° |
| 2026-05-06 23:30 | 33.72788 | -117.35828 | 21662 ft | 407 kts | 74° |
| 2026-05-06 23:30 | 33.73418 | -117.32497 | 21975 ft | 409 kts | 74° |
| 2026-05-06 23:31 | 33.74050 | -117.29153 | 22362 ft | 411 kts | 74° |
| 2026-05-06 23:31 | 33.74678 | -117.25801 | 22690 ft | 414 kts | 75° |
| 2026-05-06 23:31 | 33.75073 | -117.22353 | 23013 ft | 419 kts | 84° |
| 2026-05-06 23:31 | 33.75085 | -117.18834 | 23353 ft | 423 kts | 88° |
| 2026-05-06 23:32 | 33.75008 | -117.15295 | 23671 ft | 426 kts | 88° |
| 2026-05-06 23:32 | 33.74925 | -117.11716 | 23928 ft | 429 kts | 88° |
| 2026-05-06 23:32 | 33.74844 | -117.08135 | 24252 ft | 429 kts | 88° |
| 2026-05-06 23:32 | 33.74765 | -117.04557 | 24586 ft | 430 kts | 88° |
| 2026-05-06 23:33 | 33.74687 | -117.00958 | 24877 ft | 432 kts | 88° |
| 2026-05-06 23:33 | 33.74609 | -116.97352 | 25194 ft | 433 kts | 88° |
| 2026-05-06 23:33 | 33.74533 | -116.93731 | 25492 ft | 434 kts | 88° |
| 2026-05-06 23:33 | 33.74453 | -116.90144 | 25811 ft | 435 kts | 88° |
| 2026-05-06 23:34 | 33.74370 | -116.86461 | 26147 ft | 436 kts | 88° |
| 2026-05-06 23:34 | 33.74286 | -116.82810 | 26464 ft | 438 kts | 88° |
| 2026-05-06 23:34 | 33.74202 | -116.79146 | 26763 ft | 440 kts | 88° |
| 2026-05-06 23:34 | 33.74117 | -116.75511 | 27053 ft | 442 kts | 88° |
| 2026-05-06 23:35 | 33.74029 | -116.71778 | 27406 ft | 442 kts | 88° |
| 2026-05-06 23:35 | 33.73941 | -116.68076 | 27730 ft | 443 kts | 88° |
| 2026-05-06 23:35 | 33.73855 | -116.64414 | 28041 ft | 445 kts | 88° |
| 2026-05-06 23:35 | 33.73763 | -116.60644 | 28375 ft | 447 kts | 88° |
| 2026-05-06 23:36 | 33.73672 | -116.56951 | 28709 ft | 449 kts | 88° |
| 2026-05-06 23:36 | 33.73578 | -116.53208 | 29205 ft | 447 kts | 88° |
| 2026-05-06 23:36 | 33.73483 | -116.49480 | 29588 ft | 447 kts | 88° |
| 2026-05-06 23:36 | 33.73387 | -116.45745 | 29865 ft | 449 kts | 88° |
| 2026-05-06 23:37 | 33.73290 | -116.41987 | 30112 ft | 451 kts | 88° |
| 2026-05-06 23:37 | 33.73191 | -116.38214 | 30337 ft | 453 kts | 88° |
| 2026-05-06 23:37 | 33.73092 | -116.34434 | 30565 ft | 454 kts | 88° |
| 2026-05-06 23:37 | 33.72990 | -116.30639 | 30801 ft | 455 kts | 88° |
| 2026-05-06 23:38 | 33.72887 | -116.26827 | 31001 ft | 457 kts | 88° |
| 2026-05-06 23:38 | 33.72783 | -116.23010 | 31237 ft | 457 kts | 88° |
| 2026-05-06 23:38 | 33.72677 | -116.19195 | 31526 ft | 457 kts | 88° |
| 2026-05-06 23:38 | 33.72569 | -116.15392 | 31864 ft | 455 kts | 87° |
| 2026-05-06 23:39 | 33.72479 | -116.11603 | 32173 ft | 452 kts | 86° |
| 2026-05-06 23:39 | 33.72649 | -116.07848 | 32442 ft | 447 kts | 78° |
| 2026-05-06 23:39 | 33.73250 | -116.04207 | 32678 ft | 443 kts | 71° |
| 2026-05-06 23:39 | 33.74132 | -116.00678 | 32975 ft | 440 kts | 69° |
| 2026-05-06 23:40 | 33.75077 | -115.97196 | 33288 ft | 438 kts | 68° |
| 2026-05-06 23:40 | 33.76054 | -115.93732 | 33554 ft | 437 kts | 68° |
| 2026-05-06 23:40 | 33.77042 | -115.90272 | 33759 ft | 438 kts | 68° |
| 2026-05-06 23:40 | 33.78027 | -115.86800 | 34031 ft | 437 kts | 68° |
| 2026-05-06 23:41 | 33.79001 | -115.83340 | 34259 ft | 437 kts | 68° |
| 2026-05-06 23:41 | 33.79968 | -115.79873 | 34417 ft | 438 kts | 68° |
| 2026-05-06 23:41 | 33.80930 | -115.76402 | 34562 ft | 439 kts | 69° |
| 2026-05-06 23:41 | 33.81892 | -115.72917 | 34767 ft | 439 kts | 69° |
| 2026-05-06 23:42 | 33.82852 | -115.69428 | 34923 ft | 440 kts | 69° |
| 2026-05-06 23:42 | 33.84788 | -115.62385 | 34977 ft | 446 kts | 69° |
| 2026-05-06 23:43 | 33.86733 | -115.55285 | 34967 ft | 447 kts | 69° |
| 2026-05-06 23:43 | 33.88658 | -115.48236 | 34961 ft | 446 kts | 69° |
| 2026-05-06 23:44 | 33.90604 | -115.41096 | 34961 ft | 446 kts | 69° |
| 2026-05-06 23:44 | 33.92525 | -115.34042 | 34953 ft | 446 kts | 69° |
| 2026-05-06 23:45 | 33.94453 | -115.26945 | 34955 ft | 446 kts | 69° |
| 2026-05-06 23:45 | 33.96376 | -115.19841 | 34952 ft | 446 kts | 69° |
| 2026-05-06 23:46 | 33.98297 | -115.12726 | 34953 ft | 446 kts | 69° |
| 2026-05-06 23:46 | 34.00212 | -115.05610 | 34951 ft | 446 kts | 69° |
| 2026-05-06 23:47 | 34.02107 | -114.98553 | 34951 ft | 441 kts | 69° |
| 2026-05-06 23:47 | 34.03996 | -114.91505 | 34954 ft | 441 kts | 69° |
| 2026-05-06 23:48 | 34.05878 | -114.84464 | 34949 ft | 441 kts | 69° |
| 2026-05-06 23:48 | 34.07756 | -114.77421 | 34952 ft | 441 kts | 69° |
| 2026-05-06 23:49 | 34.09630 | -114.70374 | 34951 ft | 441 kts | 69° |
| 2026-05-06 23:49 | 34.11528 | -114.63340 | 34949 ft | 441 kts | 69° |
| 2026-05-06 23:50 | 34.13508 | -114.56336 | 34949 ft | 441 kts | 68° |
| 2026-05-06 23:50 | 34.16475 | -114.45827 | 34944 ft | 441 kts | 69° |
| 2026-05-06 23:51 | 34.18423 | -114.38852 | 34946 ft | 441 kts | 69° |
| 2026-05-06 23:51 | 34.20377 | -114.31822 | 34944 ft | 442 kts | 69° |
| 2026-05-06 23:52 | 34.22328 | -114.24784 | 34947 ft | 442 kts | 69° |
| 2026-05-06 23:52 | 34.24278 | -114.17731 | 34946 ft | 442 kts | 69° |
| 2026-05-06 23:53 | 34.26223 | -114.10684 | 34945 ft | 442 kts | 69° |
| 2026-05-06 23:53 | 34.28169 | -114.03623 | 34945 ft | 442 kts | 69° |
| 2026-05-06 23:54 | 34.30111 | -113.96558 | 34951 ft | 444 kts | 69° |
| 2026-05-06 23:54 | 34.32050 | -113.89468 | 34939 ft | 444 kts | 69° |
| 2026-05-06 23:55 | 34.33991 | -113.82360 | 34951 ft | 445 kts | 69° |
| 2026-05-06 23:55 | 34.35940 | -113.75207 | 34953 ft | 450 kts | 69° |
| 2026-05-06 23:56 | 34.37898 | -113.68003 | 34951 ft | 450 kts | 69° |
| 2026-05-06 23:56 | 34.39855 | -113.60784 | 35116 ft | 452 kts | 69° |
| 2026-05-06 23:57 | 34.40831 | -113.57174 | 35294 ft | 452 kts | 69° |
| 2026-05-06 23:57 | 34.41478 | -113.54774 | 35413 ft | 452 kts | 69° |
| 2026-05-06 23:57 | 34.42455 | -113.51150 | 35539 ft | 453 kts | 69° |
| 2026-05-06 23:57 | 34.43435 | -113.47515 | 35702 ft | 453 kts | 69° |
| 2026-05-06 23:58 | 34.44732 | -113.42696 | 35845 ft | 456 kts | 69° |
| 2026-05-06 23:58 | 34.45712 | -113.39048 | 36007 ft | 456 kts | 69° |
| 2026-05-06 23:58 | 34.46692 | -113.35399 | 36163 ft | 456 kts | 69° |
| 2026-05-06 23:58 | 34.47675 | -113.31733 | 36266 ft | 457 kts | 69° |
| 2026-05-06 23:59 | 34.48655 | -113.28074 | 36404 ft | 457 kts | 69° |
| 2026-05-06 23:59 | 34.49318 | -113.25596 | 36495 ft | 458 kts | 69° |
| 2026-05-06 23:59 | 34.50299 | -113.21922 | 36617 ft | 459 kts | 69° |
| 2026-05-06 23:59 | 34.51282 | -113.18235 | 36734 ft | 459 kts | 69° |
| 2026-05-07 00:00 | 34.52263 | -113.14552 | 36870 ft | 460 kts | 69° |
| 2026-05-07 00:00 | 34.53246 | -113.10854 | 36951 ft | 460 kts | 69° |
| 2026-05-07 00:00 | 34.55212 | -113.03441 | 36977 ft | 464 kts | 69° |
| 2026-05-07 00:01 | 34.56346 | -112.95744 | 36975 ft | 472 kts | 85° |
| 2026-05-07 00:01 | 34.56088 | -112.87741 | 36976 ft | 476 kts | 90° |
| 2026-05-07 00:02 | 34.55548 | -112.79728 | 36974 ft | 476 kts | 91° |
| 2026-05-07 00:02 | 34.54979 | -112.71707 | 36965 ft | 479 kts | 92° |
| 2026-05-07 00:03 | 34.54425 | -112.63635 | 36971 ft | 481 kts | 92° |
| 2026-05-07 00:03 | 34.53880 | -112.55557 | 36970 ft | 481 kts | 91° |
| 2026-05-07 00:04 | 34.53332 | -112.47475 | 37072 ft | 481 kts | 92° |
| 2026-05-07 00:04 | 34.52780 | -112.39382 | 37063 ft | 483 kts | 92° |
| 2026-05-07 00:05 | 34.52243 | -112.31605 | 37061 ft | 485 kts | 92° |
| 2026-05-07 00:05 | 34.51671 | -112.23454 | 37023 ft | 485 kts | 92° |
| 2026-05-07 00:06 | 34.51095 | -112.15291 | 36986 ft | 485 kts | 92° |
| 2026-05-07 00:06 | 34.50514 | -112.07133 | 36967 ft | 487 kts | 93° |
| 2026-05-07 00:07 | 34.49640 | -111.99002 | 36937 ft | 490 kts | 102° |
| 2026-05-07 00:07 | 34.47823 | -111.91083 | 36953 ft | 491 kts | 104° |
| 2026-05-07 00:08 | 34.45840 | -111.83147 | 36935 ft | 493 kts | 105° |
| 2026-05-07 00:08 | 34.43832 | -111.75198 | 36948 ft | 497 kts | 106° |
| 2026-05-07 00:09 | 34.41805 | -111.67155 | 36945 ft | 502 kts | 106° |
| 2026-05-07 00:09 | 34.39764 | -111.59047 | 36947 ft | 503 kts | 106° |
| 2026-05-07 00:10 | 34.37726 | -111.50961 | 37044 ft | 501 kts | 106° |
| 2026-05-07 00:10 | 34.35684 | -111.42889 | 37085 ft | 502 kts | 106° |
| 2026-05-07 00:11 | 34.33720 | -111.34861 | 37106 ft | 502 kts | 102° |
| 2026-05-07 00:11 | 34.33144 | -111.26546 | 37110 ft | 502 kts | 87° |
| 2026-05-07 00:12 | 34.33584 | -111.18075 | 37073 ft | 508 kts | 85° |
| 2026-05-07 00:12 | 34.34171 | -111.09601 | 37033 ft | 508 kts | 85° |
| 2026-05-07 00:13 | 34.34747 | -111.01079 | 36997 ft | 509 kts | 85° |
| 2026-05-07 00:13 | 34.35292 | -110.92530 | 36967 ft | 509 kts | 85° |
| 2026-05-07 00:14 | 34.35820 | -110.83993 | 36976 ft | 509 kts | 85° |
| 2026-05-07 00:14 | 34.36343 | -110.75438 | 36963 ft | 511 kts | 86° |
| 2026-05-07 00:15 | 34.36864 | -110.66823 | 36973 ft | 515 kts | 86° |
| 2026-05-07 00:15 | 34.37380 | -110.58182 | 36964 ft | 515 kts | 86° |
| 2026-05-07 00:16 | 34.37892 | -110.49539 | 36982 ft | 515 kts | 86° |
| 2026-05-07 00:16 | 34.38398 | -110.40877 | 37024 ft | 517 kts | 86° |
| 2026-05-07 00:17 | 34.38899 | -110.32190 | 37065 ft | 518 kts | 86° |
| 2026-05-07 00:17 | 34.39395 | -110.23493 | 37102 ft | 518 kts | 86° |
| 2026-05-07 00:18 | 34.39885 | -110.14791 | 37121 ft | 518 kts | 86° |
| 2026-05-07 00:18 | 34.40366 | -110.06133 | 37121 ft | 521 kts | 87° |
| 2026-05-07 00:19 | 34.40848 | -109.97344 | 37102 ft | 524 kts | 87° |
| 2026-05-07 00:19 | 34.41324 | -109.88547 | 37077 ft | 524 kts | 87° |
| 2026-05-07 00:20 | 34.41794 | -109.79755 | 37038 ft | 523 kts | 87° |
| 2026-05-07 00:20 | 34.42260 | -109.70929 | 36994 ft | 528 kts | 87° |
| 2026-05-07 00:21 | 34.42721 | -109.62033 | 36947 ft | 529 kts | 87° |
| 2026-05-07 00:21 | 34.43177 | -109.53139 | 36950 ft | 529 kts | 87° |
| 2026-05-07 00:22 | 34.43626 | -109.44242 | 36973 ft | 529 kts | 87° |
| 2026-05-07 00:22 | 34.44070 | -109.35321 | 36976 ft | 532 kts | 88° |
| 2026-05-07 00:23 | 34.44509 | -109.26363 | 36970 ft | 532 kts | 88° |
| 2026-05-07 00:23 | 34.44941 | -109.17420 | 36953 ft | 532 kts | 88° |
| 2026-05-07 00:24 | 34.45367 | -109.08466 | 36993 ft | 533 kts | 88° |
| 2026-05-07 00:24 | 34.45789 | -108.99461 | 36953 ft | 537 kts | 88° |
| 2026-05-07 00:25 | 34.46206 | -108.90413 | 36937 ft | 538 kts | 88° |
| 2026-05-07 00:25 | 34.46616 | -108.81373 | 36950 ft | 538 kts | 88° |
| 2026-05-07 00:26 | 34.47021 | -108.72313 | 36943 ft | 540 kts | 88° |
| 2026-05-07 00:26 | 34.47420 | -108.63206 | 36947 ft | 542 kts | 88° |
| 2026-05-07 00:27 | 34.47813 | -108.54077 | 36941 ft | 542 kts | 88° |
| 2026-05-07 00:27 | 34.48200 | -108.44948 | 36941 ft | 542 kts | 88° |
| 2026-05-07 00:28 | 34.48581 | -108.35805 | 36938 ft | 545 kts | 89° |
| 2026-05-07 00:28 | 34.48957 | -108.26598 | 36937 ft | 548 kts | 89° |
| 2026-05-07 00:29 | 34.49327 | -108.17372 | 36939 ft | 548 kts | 89° |
| 2026-05-07 00:30 | 34.50465 | -107.98968 | 36936 ft | 549 kts | 76° |
| 2026-05-07 00:30 | 34.52605 | -107.90086 | 36936 ft | 549 kts | 72° |
| 2026-05-07 00:31 | 34.54981 | -107.81282 | 36933 ft | 549 kts | 71° |
| 2026-05-07 00:31 | 34.57373 | -107.72489 | 36927 ft | 550 kts | 71° |
| 2026-05-07 00:32 | 34.59752 | -107.63624 | 36925 ft | 554 kts | 72° |
| 2026-05-07 00:32 | 34.62105 | -107.54771 | 36911 ft | 555 kts | 72° |
| 2026-05-07 00:33 | 34.64465 | -107.45845 | 36899 ft | 554 kts | 72° |
| 2026-05-07 00:33 | 34.66814 | -107.36935 | 36904 ft | 555 kts | 72° |
| 2026-05-07 00:34 | 34.69176 | -107.27953 | 36890 ft | 560 kts | 72° |
| 2026-05-07 00:34 | 34.71540 | -107.18930 | 36887 ft | 560 kts | 72° |
| 2026-05-07 00:35 | 34.73900 | -107.09900 | 36887 ft | 560 kts | 72° |
| 2026-05-07 00:35 | 34.76252 | -107.00868 | 36888 ft | 561 kts | 72° |
| 2026-05-07 00:36 | 34.78607 | -106.91781 | 36884 ft | 564 kts | 72° |
| 2026-05-07 00:36 | 34.79784 | -106.87227 | 37007 ft | 564 kts | 72° |
| 2026-05-07 00:36 | 34.80962 | -106.82667 | 37003 ft | 564 kts | 72° |
| 2026-05-07 00:37 | 34.83307 | -106.73559 | 36984 ft | 564 kts | 72° |
| 2026-05-07 00:37 | 34.85650 | -106.64430 | 37005 ft | 566 kts | 72° |
| 2026-05-07 00:38 | 34.87990 | -106.55281 | 37018 ft | 566 kts | 72° |
| 2026-05-07 00:38 | 34.90327 | -106.46115 | 37021 ft | 567 kts | 72° |
| 2026-05-07 00:39 | 34.92657 | -106.36939 | 36993 ft | 567 kts | 72° |
| 2026-05-07 00:39 | 34.94981 | -106.27757 | 36978 ft | 569 kts | 73° |
| 2026-05-07 00:40 | 34.97312 | -106.18515 | 36964 ft | 570 kts | 73° |
| 2026-05-07 00:40 | 34.99636 | -106.09267 | 36958 ft | 571 kts | 73° |
| 2026-05-07 00:41 | 35.01953 | -106.00016 | 36973 ft | 571 kts | 73° |
| 2026-05-07 00:41 | 35.04271 | -105.90729 | 36990 ft | 574 kts | 73° |
| 2026-05-07 00:42 | 35.06594 | -105.81382 | 36990 ft | 576 kts | 73° |
| 2026-05-07 00:42 | 35.08911 | -105.72023 | 36990 ft | 576 kts | 73° |
| 2026-05-07 00:43 | 35.11222 | -105.62661 | 36992 ft | 576 kts | 74° |
| 2026-05-07 00:43 | 35.13520 | -105.53311 | 36986 ft | 581 kts | 74° |
| 2026-05-07 00:44 | 35.15837 | -105.43852 | 36981 ft | 582 kts | 74° |
| 2026-05-07 00:44 | 35.18148 | -105.34384 | 36981 ft | 581 kts | 74° |
| 2026-05-07 00:45 | 35.20454 | -105.24903 | 36975 ft | 583 kts | 74° |
| 2026-05-07 00:45 | 35.22393 | -105.16900 | 36978 ft | 588 kts | 74° |
| 2026-05-07 00:46 | 35.24717 | -105.07269 | 37005 ft | 591 kts | 75° |
| 2026-05-07 00:46 | 35.27025 | -104.97675 | 36997 ft | 591 kts | 75° |
| 2026-05-07 00:47 | 35.29353 | -104.87953 | 37027 ft | 592 kts | 74° |
| 2026-05-07 00:47 | 35.31665 | -104.78265 | 37011 ft | 594 kts | 75° |
| 2026-05-07 00:48 | 35.33958 | -104.68622 | 37032 ft | 594 kts | 75° |
| 2026-05-07 00:48 | 35.36256 | -104.58914 | 37053 ft | 590 kts | 74° |
| 2026-05-07 00:49 | 35.38520 | -104.49310 | 37057 ft | 584 kts | 74° |
| 2026-05-07 00:49 | 35.40765 | -104.39759 | 37056 ft | 583 kts | 74° |
| 2026-05-07 00:50 | 35.43000 | -104.30208 | 37067 ft | 583 kts | 74° |
| 2026-05-07 00:50 | 35.45226 | -104.20656 | 37067 ft | 583 kts | 75° |
| 2026-05-07 00:51 | 35.47470 | -104.10991 | 37067 ft | 588 kts | 75° |
| 2026-05-07 00:51 | 35.49694 | -104.01374 | 37067 ft | 591 kts | 75° |
| 2026-05-07 00:52 | 35.52072 | -103.91721 | 37066 ft | 590 kts | 72° |
| 2026-05-07 00:52 | 35.54709 | -103.82183 | 37071 ft | 591 kts | 71° |
| 2026-05-07 00:53 | 35.57356 | -103.72600 | 37105 ft | 594 kts | 71° |
| 2026-05-07 00:53 | 35.59949 | -103.62965 | 37096 ft | 594 kts | 72° |
| 2026-05-07 00:54 | 35.62509 | -103.53315 | 37087 ft | 594 kts | 72° |
| 2026-05-07 00:54 | 35.65063 | -103.43644 | 37088 ft | 596 kts | 72° |
| 2026-05-07 00:55 | 35.67627 | -103.33917 | 37089 ft | 600 kts | 72° |
| 2026-05-07 00:55 | 35.70194 | -103.24148 | 37092 ft | 600 kts | 72° |
| 2026-05-07 00:56 | 35.72754 | -103.14372 | 37092 ft | 600 kts | 72° |
| 2026-05-07 00:56 | 35.75308 | -103.04577 | 37113 ft | 603 kts | 72° |
| 2026-05-07 00:57 | 35.77885 | -102.94662 | 37114 ft | 604 kts | 72° |
| 2026-05-07 00:57 | 35.80418 | -102.84877 | 37109 ft | 604 kts | 72° |
| 2026-05-07 00:58 | 35.82954 | -102.75032 | 37114 ft | 599 kts | 72° |
| 2026-05-07 00:58 | 35.85457 | -102.65289 | 37113 ft | 595 kts | 72° |
| 2026-05-07 00:59 | 35.89191 | -102.50695 | 37171 ft | 595 kts | 72° |
| 2026-05-07 01:00 | 35.91668 | -102.40964 | 37166 ft | 595 kts | 72° |
| 2026-05-07 01:00 | 35.94142 | -102.31207 | 37158 ft | 598 kts | 72° |
| 2026-05-07 01:01 | 35.96620 | -102.21396 | 37140 ft | 599 kts | 72° |
| 2026-05-07 01:01 | 35.99090 | -102.11571 | 37121 ft | 599 kts | 72° |
| 2026-05-07 01:02 | 36.01552 | -102.01746 | 37113 ft | 599 kts | 73° |
| 2026-05-07 01:02 | 36.04015 | -101.91880 | 37122 ft | 602 kts | 73° |
| 2026-05-07 01:03 | 36.06476 | -101.81981 | 37133 ft | 603 kts | 73° |
| 2026-05-07 01:03 | 36.08932 | -101.72064 | 37133 ft | 602 kts | 73° |
| 2026-05-07 01:04 | 36.11376 | -101.62157 | 37135 ft | 604 kts | 73° |
| 2026-05-07 01:04 | 36.13824 | -101.52195 | 37135 ft | 606 kts | 73° |
| 2026-05-07 01:05 | 36.16264 | -101.42226 | 37143 ft | 606 kts | 73° |
| 2026-05-07 01:05 | 36.18698 | -101.32240 | 37143 ft | 605 kts | 73° |
| 2026-05-07 01:06 | 36.21113 | -101.22299 | 37138 ft | 609 kts | 74° |
| 2026-05-07 01:06 | 36.23542 | -101.12238 | 37156 ft | 608 kts | 74° |
| 2026-05-07 01:07 | 36.25941 | -101.02272 | 37146 ft | 602 kts | 74° |
| 2026-05-07 01:07 | 36.28327 | -100.92332 | 37140 ft | 601 kts | 74° |
| 2026-05-07 01:08 | 36.30703 | -100.82391 | 37139 ft | 601 kts | 74° |
| 2026-05-07 01:08 | 36.33067 | -100.72451 | 37137 ft | 601 kts | 74° |
| 2026-05-07 01:09 | 36.35427 | -100.62491 | 37139 ft | 601 kts | 74° |
| 2026-05-07 01:09 | 36.37780 | -100.52522 | 37136 ft | 603 kts | 74° |
| 2026-05-07 01:10 | 36.40134 | -100.42499 | 37142 ft | 606 kts | 75° |
| 2026-05-07 01:10 | 36.42470 | -100.32514 | 37146 ft | 606 kts | 75° |
| 2026-05-07 01:11 | 36.44813 | -100.22459 | 37144 ft | 606 kts | 75° |
| 2026-05-07 01:11 | 36.47150 | -100.12388 | 37141 ft | 609 kts | 75° |
| 2026-05-07 01:12 | 36.49514 | -100.02240 | 37135 ft | 613 kts | 73° |
| 2026-05-07 01:12 | 36.52762 | -99.92444 | 37137 ft | 612 kts | 65° |
| 2026-05-07 01:13 | 36.56270 | -99.82794 | 37122 ft | 612 kts | 64° |
| 2026-05-07 01:13 | 36.59834 | -99.73140 | 37198 ft | 618 kts | 64° |
| 2026-05-07 01:14 | 36.63383 | -99.63457 | 37133 ft | 610 kts | 65° |
| 2026-05-07 01:14 | 36.66873 | -99.53854 | 37135 ft | 608 kts | 65° |
| 2026-05-07 01:15 | 36.70347 | -99.44250 | 37125 ft | 608 kts | 65° |
| 2026-05-07 01:15 | 36.73832 | -99.34587 | 37133 ft | 615 kts | 65° |
| 2026-05-07 01:16 | 36.77338 | -99.24841 | 37133 ft | 616 kts | 65° |
| 2026-05-07 01:16 | 36.80833 | -99.15095 | 37133 ft | 615 kts | 65° |
| 2026-05-07 01:17 | 36.84320 | -99.05340 | 37120 ft | 616 kts | 65° |
| 2026-05-07 01:17 | 36.87802 | -98.95567 | 37126 ft | 623 kts | 65° |
| 2026-05-07 01:18 | 36.91316 | -98.85673 | 37140 ft | 622 kts | 65° |
| 2026-05-07 01:18 | 36.94787 | -98.75863 | 37121 ft | 614 kts | 65° |
| 2026-05-07 01:19 | 36.98232 | -98.66098 | 37126 ft | 615 kts | 65° |
| 2026-05-07 01:19 | 37.01696 | -98.56250 | 37124 ft | 621 kts | 65° |
| 2026-05-07 01:20 | 37.05166 | -98.46354 | 37125 ft | 621 kts | 66° |
| 2026-05-07 01:20 | 37.08623 | -98.36459 | 37127 ft | 620 kts | 66° |
| 2026-05-07 01:21 | 37.12078 | -98.26537 | 37128 ft | 623 kts | 66° |
| 2026-05-07 01:21 | 37.15537 | -98.16571 | 37129 ft | 624 kts | 66° |
| 2026-05-07 01:22 | 37.18994 | -98.06580 | 37135 ft | 625 kts | 66° |
| 2026-05-07 01:22 | 37.22439 | -97.96587 | 37141 ft | 621 kts | 66° |
| 2026-05-07 01:23 | 37.25855 | -97.86646 | 37129 ft | 621 kts | 66° |
| 2026-05-07 01:23 | 37.29267 | -97.76684 | 37125 ft | 621 kts | 66° |
| 2026-05-07 01:24 | 37.32672 | -97.66709 | 37125 ft | 621 kts | 66° |
| 2026-05-07 01:24 | 37.36071 | -97.56719 | 37111 ft | 622 kts | 66° |
| 2026-05-07 01:25 | 37.39475 | -97.46678 | 37140 ft | 628 kts | 66° |
| 2026-05-07 01:25 | 37.42898 | -97.36548 | 37136 ft | 628 kts | 66° |
| 2026-05-07 01:26 | 37.46306 | -97.26427 | 37123 ft | 628 kts | 66° |
| 2026-05-07 01:26 | 37.49704 | -97.16302 | 37122 ft | 628 kts | 66° |
| 2026-05-07 01:27 | 37.53062 | -97.06259 | 37123 ft | 622 kts | 66° |
| 2026-05-07 01:27 | 37.56404 | -96.96227 | 37132 ft | 620 kts | 66° |
| 2026-05-07 01:28 | 37.59736 | -96.86197 | 37135 ft | 620 kts | 67° |
| 2026-05-07 01:28 | 37.63063 | -96.76143 | 37137 ft | 623 kts | 66° |
| 2026-05-07 01:29 | 37.66395 | -96.66042 | 37137 ft | 624 kts | 67° |
| 2026-05-07 01:29 | 37.69723 | -96.55918 | 37136 ft | 624 kts | 67° |
| 2026-05-07 01:30 | 37.72482 | -96.47498 | 37127 ft | 624 kts | 67° |
| 2026-05-07 01:30 | 37.75802 | -96.37330 | 37148 ft | 628 kts | 67° |
| 2026-05-07 01:31 | 37.79135 | -96.27088 | 37207 ft | 631 kts | 67° |
| 2026-05-07 01:31 | 37.82434 | -96.16910 | 37127 ft | 621 kts | 67° |
| 2026-05-07 01:32 | 37.85699 | -96.06806 | 37109 ft | 619 kts | 67° |
| 2026-05-07 01:32 | 37.88966 | -95.96665 | 37128 ft | 626 kts | 67° |
| 2026-05-07 01:33 | 37.92252 | -95.86424 | 37125 ft | 628 kts | 67° |
| 2026-05-07 01:33 | 37.95524 | -95.76186 | 37129 ft | 627 kts | 67° |
| 2026-05-07 01:34 | 37.98772 | -95.65988 | 37131 ft | 628 kts | 67° |
| 2026-05-07 01:34 | 38.02036 | -95.55702 | 37129 ft | 629 kts | 67° |
| 2026-05-07 01:35 | 38.05299 | -95.45387 | 37123 ft | 630 kts | 67° |
| 2026-05-07 01:35 | 38.08547 | -95.35077 | 37131 ft | 627 kts | 68° |
| 2026-05-07 01:36 | 38.11765 | -95.24824 | 37122 ft | 626 kts | 68° |
| 2026-05-07 01:36 | 38.14986 | -95.14527 | 37123 ft | 627 kts | 68° |
| 2026-05-07 01:37 | 38.18198 | -95.04220 | 37122 ft | 627 kts | 68° |
| 2026-05-07 01:37 | 38.21400 | -94.93908 | 37107 ft | 627 kts | 68° |
| 2026-05-07 01:38 | 38.24602 | -94.83555 | 37125 ft | 631 kts | 68° |
| 2026-05-07 01:38 | 38.27792 | -94.73205 | 37121 ft | 632 kts | 68° |
| 2026-05-07 01:39 | 38.30994 | -94.62775 | 37120 ft | 632 kts | 68° |
| 2026-05-07 01:39 | 38.34185 | -94.52344 | 37124 ft | 633 kts | 68° |
| 2026-05-07 01:40 | 38.37377 | -94.41867 | 37129 ft | 635 kts | 68° |
| 2026-05-07 01:40 | 38.40565 | -94.31365 | 37130 ft | 635 kts | 68° |
| 2026-05-07 01:41 | 38.43744 | -94.20854 | 37133 ft | 635 kts | 68° |
| 2026-05-07 01:41 | 38.46917 | -94.10319 | 37133 ft | 638 kts | 68° |
| 2026-05-07 01:42 | 38.50093 | -93.99737 | 37121 ft | 639 kts | 68° |
| 2026-05-07 01:42 | 38.53051 | -93.89046 | 37116 ft | 639 kts | 72° |
| 2026-05-07 01:43 | 38.55742 | -93.78236 | 37109 ft | 639 kts | 73° |
| 2026-05-07 01:43 | 38.58447 | -93.67383 | 37112 ft | 641 kts | 72° |
| 2026-05-07 01:44 | 38.61207 | -93.56548 | 37124 ft | 640 kts | 72° |
| 2026-05-07 01:44 | 38.63967 | -93.45775 | 37118 ft | 637 kts | 72° |
| 2026-05-07 01:45 | 38.66713 | -93.35002 | 37108 ft | 637 kts | 72° |
| 2026-05-07 01:45 | 38.69442 | -93.24226 | 37107 ft | 637 kts | 72° |
| 2026-05-07 01:46 | 38.72160 | -93.13434 | 37110 ft | 637 kts | 72° |
| 2026-05-07 01:46 | 38.74869 | -93.02631 | 37089 ft | 637 kts | 72° |
| 2026-05-07 01:47 | 38.77572 | -92.91803 | 37098 ft | 639 kts | 72° |
| 2026-05-07 01:47 | 38.80254 | -92.81015 | 37110 ft | 639 kts | 72° |
| 2026-05-07 01:48 | 38.82942 | -92.70154 | 37116 ft | 639 kts | 72° |
| 2026-05-07 01:48 | 38.85624 | -92.59266 | 37117 ft | 642 kts | 72° |
| 2026-05-07 01:49 | 38.88308 | -92.48322 | 37107 ft | 640 kts | 72° |
| 2026-05-07 01:49 | 38.90963 | -92.37446 | 37098 ft | 638 kts | 72° |
| 2026-05-07 01:50 | 38.93606 | -92.26572 | 37093 ft | 638 kts | 73° |
| 2026-05-07 01:50 | 38.96247 | -92.15655 | 37095 ft | 641 kts | 73° |
| 2026-05-07 01:51 | 38.98885 | -92.04701 | 37099 ft | 642 kts | 73° |
| 2026-05-07 01:51 | 39.02206 | -91.94078 | 37093 ft | 640 kts | 63° |
| 2026-05-07 01:52 | 39.05960 | -91.83683 | 37106 ft | 641 kts | 62° |
| 2026-05-07 01:52 | 39.09796 | -91.73319 | 37109 ft | 642 kts | 62° |
| 2026-05-07 01:53 | 39.13618 | -91.62947 | 37105 ft | 639 kts | 62° |
| 2026-05-07 01:53 | 39.17367 | -91.52670 | 37083 ft | 637 kts | 63° |
| 2026-05-07 01:54 | 39.21123 | -91.42315 | 37093 ft | 639 kts | 63° |
| 2026-05-07 01:54 | 39.24879 | -91.31923 | 37089 ft | 640 kts | 63° |
| 2026-05-07 01:55 | 39.28633 | -91.21505 | 37083 ft | 640 kts | 63° |
| 2026-05-07 01:55 | 39.32378 | -91.11076 | 37075 ft | 640 kts | 63° |
| 2026-05-07 01:56 | 39.36123 | -91.00612 | 37101 ft | 642 kts | 63° |
| 2026-05-07 01:56 | 39.39844 | -90.90173 | 37093 ft | 637 kts | 63° |
| 2026-05-07 01:57 | 39.43544 | -90.79757 | 37096 ft | 637 kts | 63° |
| 2026-05-07 01:57 | 39.47234 | -90.69340 | 37099 ft | 638 kts | 63° |
| 2026-05-07 01:58 | 39.50923 | -90.58882 | 37100 ft | 639 kts | 63° |
| 2026-05-07 01:58 | 39.54610 | -90.48395 | 37091 ft | 639 kts | 63° |
| 2026-05-07 01:59 | 39.58287 | -90.37894 | 37121 ft | 639 kts | 63° |
| 2026-05-07 01:59 | 39.61941 | -90.27419 | 37088 ft | 636 kts | 63° |
| 2026-05-07 02:00 | 39.65577 | -90.16960 | 37087 ft | 636 kts | 63° |
| 2026-05-07 02:00 | 39.69200 | -90.06505 | 37088 ft | 636 kts | 63° |
| 2026-05-07 02:01 | 39.72817 | -89.96025 | 37073 ft | 636 kts | 63° |
| 2026-05-07 02:01 | 39.76416 | -89.85562 | 37087 ft | 639 kts | 63° |
| 2026-05-07 02:02 | 39.80031 | -89.75012 | 37091 ft | 639 kts | 63° |
| 2026-05-07 02:02 | 39.83629 | -89.64468 | 37090 ft | 634 kts | 64° |
| 2026-05-07 02:03 | 39.87182 | -89.54017 | 37071 ft | 631 kts | 64° |
| 2026-05-07 02:03 | 39.90727 | -89.43559 | 37074 ft | 631 kts | 64° |
| 2026-05-07 02:04 | 39.94260 | -89.33098 | 37077 ft | 631 kts | 64° |
| 2026-05-07 02:04 | 39.97786 | -89.22615 | 37053 ft | 631 kts | 64° |
| 2026-05-07 02:05 | 40.01311 | -89.12100 | 37078 ft | 635 kts | 64° |
| 2026-05-07 02:05 | 40.04837 | -89.01540 | 37082 ft | 632 kts | 64° |
| 2026-05-07 02:06 | 40.08318 | -88.91066 | 37071 ft | 627 kts | 64° |
| 2026-05-07 02:06 | 40.11759 | -88.80682 | 37071 ft | 628 kts | 64° |
| 2026-05-07 02:07 | 40.15227 | -88.70186 | 37079 ft | 629 kts | 64° |
| 2026-05-07 02:07 | 40.20412 | -88.54407 | 37077 ft | 630 kts | 64° |
| 2026-05-07 02:08 | 40.23856 | -88.43875 | 37066 ft | 630 kts | 64° |
| 2026-05-07 02:08 | 40.27297 | -88.33313 | 37069 ft | 628 kts | 64° |
| 2026-05-07 02:09 | 40.30704 | -88.22813 | 37070 ft | 625 kts | 64° |
| 2026-05-07 02:09 | 40.34092 | -88.12336 | 37077 ft | 625 kts | 64° |
| 2026-05-07 02:10 | 40.37476 | -88.01838 | 37067 ft | 627 kts | 64° |
| 2026-05-07 02:10 | 40.40868 | -87.91268 | 37068 ft | 629 kts | 65° |
| 2026-05-07 02:11 | 40.44251 | -87.80686 | 37064 ft | 629 kts | 65° |
| 2026-05-07 02:11 | 40.47624 | -87.70090 | 37054 ft | 625 kts | 65° |
| 2026-05-07 02:12 | 40.50959 | -87.59570 | 37059 ft | 625 kts | 65° |
| 2026-05-07 02:12 | 40.54298 | -87.49007 | 37058 ft | 626 kts | 65° |
| 2026-05-07 02:13 | 40.57625 | -87.38441 | 37053 ft | 626 kts | 65° |
| 2026-05-07 02:13 | 40.60944 | -87.27854 | 37045 ft | 627 kts | 65° |
| 2026-05-07 02:14 | 40.64265 | -87.17223 | 37050 ft | 629 kts | 65° |
| 2026-05-07 02:14 | 40.67585 | -87.06552 | 37042 ft | 630 kts | 65° |
| 2026-05-07 02:15 | 40.70873 | -86.95939 | 37046 ft | 630 kts | 65° |
| 2026-05-07 02:15 | 40.74176 | -86.85235 | 37041 ft | 633 kts | 65° |
| 2026-05-07 02:16 | 40.77491 | -86.74452 | 37035 ft | 634 kts | 65° |
| 2026-05-07 02:16 | 40.80796 | -86.63658 | 37029 ft | 634 kts | 65° |
| 2026-05-07 02:17 | 40.84090 | -86.52855 | 37022 ft | 635 kts | 65° |
| 2026-05-07 02:17 | 40.87381 | -86.42019 | 37033 ft | 633 kts | 66° |
| 2026-05-07 02:18 | 40.90633 | -86.31259 | 37025 ft | 629 kts | 66° |
| 2026-05-07 02:18 | 40.93872 | -86.20507 | 37028 ft | 629 kts | 66° |
| 2026-05-07 02:19 | 40.96561 | -86.11551 | 37016 ft | 631 kts | 66° |
| 2026-05-07 02:19 | 40.99950 | -86.00819 | 37030 ft | 629 kts | 57° |
| 2026-05-07 02:20 | 41.04555 | -85.91050 | 37025 ft | 624 kts | 51° |
| 2026-05-07 02:20 | 41.09398 | -85.81550 | 37018 ft | 618 kts | 50° |
| 2026-05-07 02:21 | 41.14238 | -85.72196 | 37017 ft | 614 kts | 50° |
| 2026-05-07 02:21 | 41.19046 | -85.62833 | 37024 ft | 614 kts | 51° |
| 2026-05-07 02:22 | 41.23824 | -85.53444 | 37022 ft | 614 kts | 51° |
| 2026-05-07 02:22 | 41.28590 | -85.44028 | 37033 ft | 611 kts | 51° |
| 2026-05-07 02:23 | 41.33308 | -85.34674 | 37015 ft | 610 kts | 51° |
| 2026-05-07 02:23 | 41.38036 | -85.25288 | 37008 ft | 611 kts | 51° |
| 2026-05-07 02:24 | 41.42761 | -85.15878 | 37013 ft | 611 kts | 51° |
| 2026-05-07 02:24 | 41.47482 | -85.06443 | 37019 ft | 610 kts | 52° |
| 2026-05-07 02:25 | 41.52151 | -84.97074 | 37010 ft | 606 kts | 52° |
| 2026-05-07 02:25 | 41.56818 | -84.87696 | 37010 ft | 607 kts | 52° |
| 2026-05-07 02:26 | 41.61450 | -84.78359 | 37008 ft | 607 kts | 52° |
| 2026-05-07 02:26 | 41.66106 | -84.68940 | 37043 ft | 607 kts | 52° |
| 2026-05-07 02:27 | 41.70731 | -84.59549 | 37007 ft | 603 kts | 52° |
| 2026-05-07 02:27 | 41.75342 | -84.50163 | 37007 ft | 603 kts | 52° |
| 2026-05-07 02:28 | 41.79944 | -84.40769 | 37007 ft | 603 kts | 52° |
| 2026-05-07 02:28 | 41.84540 | -84.31358 | 37014 ft | 603 kts | 52° |
| 2026-05-07 02:29 | 41.89124 | -84.21937 | 37016 ft | 602 kts | 52° |
| 2026-05-07 02:29 | 41.93698 | -84.12510 | 37018 ft | 602 kts | 52° |
| 2026-05-07 02:30 | 41.98263 | -84.03072 | 37015 ft | 603 kts | 52° |
| 2026-05-07 02:30 | 42.02828 | -83.93605 | 37012 ft | 603 kts | 52° |
| 2026-05-07 02:31 | 42.07371 | -83.84151 | 37002 ft | 600 kts | 53° |
| 2026-05-07 02:31 | 42.11892 | -83.74712 | 36989 ft | 599 kts | 53° |
| 2026-05-07 02:32 | 42.16397 | -83.65282 | 36989 ft | 599 kts | 53° |
| 2026-05-07 02:32 | 42.20897 | -83.55832 | 36998 ft | 599 kts | 53° |
| 2026-05-07 02:33 | 42.25391 | -83.46366 | 36999 ft | 598 kts | 53° |
| 2026-05-07 02:33 | 42.29856 | -83.36925 | 36999 ft | 596 kts | 53° |
| 2026-05-07 02:34 | 42.34310 | -83.27483 | 36998 ft | 595 kts | 53° |
| 2026-05-07 02:34 | 42.38749 | -83.18043 | 36991 ft | 595 kts | 53° |
| 2026-05-07 02:35 | 42.43185 | -83.08579 | 36992 ft | 594 kts | 53° |
| 2026-05-07 02:35 | 42.47590 | -82.99148 | 36988 ft | 592 kts | 54° |
| 2026-05-07 02:36 | 42.51991 | -82.89698 | 36954 ft | 592 kts | 54° |
| 2026-05-07 02:36 | 42.56376 | -82.80254 | 36955 ft | 592 kts | 54° |
| 2026-05-07 02:37 | 42.60759 | -82.70784 | 36954 ft | 592 kts | 54° |
| 2026-05-07 02:37 | 42.65135 | -82.61298 | 36961 ft | 592 kts | 54° |
| 2026-05-07 02:38 | 42.69502 | -82.51804 | 36971 ft | 592 kts | 54° |
| 2026-05-07 02:38 | 42.74275 | -82.42735 | 36985 ft | 589 kts | 48° |
| 2026-05-07 02:39 | 42.79193 | -82.33834 | 36993 ft | 588 kts | 48° |
| 2026-05-07 02:39 | 42.84134 | -82.24947 | 36987 ft | 588 kts | 48° |
| 2026-05-07 02:40 | 42.89031 | -82.16104 | 36989 ft | 588 kts | 48° |
| 2026-05-07 02:40 | 42.93944 | -82.07187 | 36985 ft | 588 kts | 48° |
| 2026-05-07 02:41 | 42.98847 | -81.98253 | 36985 ft | 586 kts | 49° |
| 2026-05-07 02:41 | 43.03720 | -81.89346 | 36989 ft | 585 kts | 49° |
| 2026-05-07 02:42 | 43.08587 | -81.80429 | 36994 ft | 585 kts | 49° |
| 2026-05-07 02:42 | 43.13449 | -81.71494 | 37051 ft | 585 kts | 49° |
| 2026-05-07 02:43 | 43.18289 | -81.62569 | 36985 ft | 583 kts | 49° |
| 2026-05-07 02:43 | 43.23126 | -81.53626 | 36997 ft | 584 kts | 49° |
| 2026-05-07 02:44 | 43.27951 | -81.44679 | 36992 ft | 584 kts | 49° |
| 2026-05-07 02:44 | 43.32779 | -81.35697 | 37008 ft | 584 kts | 50° |
| 2026-05-07 02:45 | 43.37585 | -81.26727 | 36987 ft | 583 kts | 50° |
| 2026-05-07 02:45 | 43.42386 | -81.17740 | 36993 ft | 584 kts | 50° |
| 2026-05-07 02:46 | 43.47191 | -81.08721 | 36995 ft | 584 kts | 50° |
| 2026-05-07 02:46 | 43.51985 | -80.99692 | 36993 ft | 583 kts | 50° |
| 2026-05-07 02:47 | 43.56765 | -80.90659 | 36980 ft | 582 kts | 50° |
| 2026-05-07 02:47 | 43.61536 | -80.81621 | 36996 ft | 583 kts | 50° |
| 2026-05-07 02:48 | 43.66273 | -80.72617 | 37016 ft | 584 kts | 50° |
| 2026-05-07 02:48 | 43.71030 | -80.63547 | 36995 ft | 582 kts | 50° |
| 2026-05-07 02:49 | 43.75772 | -80.54477 | 36999 ft | 582 kts | 50° |
| 2026-05-07 02:49 | 43.80508 | -80.45391 | 36994 ft | 581 kts | 50° |
| 2026-05-07 02:50 | 43.85224 | -80.36316 | 36993 ft | 579 kts | 51° |
| 2026-05-07 02:50 | 43.89918 | -80.27254 | 36993 ft | 578 kts | 51° |
| 2026-05-07 02:51 | 43.94601 | -80.18186 | 36995 ft | 578 kts | 51° |
| 2026-05-07 02:51 | 43.99279 | -80.09101 | 37023 ft | 577 kts | 51° |
| 2026-05-07 02:52 | 44.03932 | -80.00035 | 36991 ft | 575 kts | 51° |
| 2026-05-07 02:52 | 44.08568 | -79.90972 | 36992 ft | 575 kts | 51° |
| 2026-05-07 02:53 | 44.13199 | -79.81894 | 36999 ft | 575 kts | 51° |
| 2026-05-07 02:53 | 44.17821 | -79.72803 | 36991 ft | 575 kts | 52° |
| 2026-05-07 02:54 | 44.22429 | -79.63711 | 36984 ft | 573 kts | 52° |
| 2026-05-07 02:54 | 44.26992 | -79.54680 | 36984 ft | 573 kts | 52° |
| 2026-05-07 02:55 | 44.31580 | -79.45572 | 36985 ft | 573 kts | 52° |
| 2026-05-07 02:55 | 44.36188 | -79.36396 | 36973 ft | 574 kts | 52° |
| 2026-05-07 02:56 | 44.40762 | -79.27257 | 36984 ft | 574 kts | 52° |
| 2026-05-07 02:56 | 44.45306 | -79.18150 | 36983 ft | 574 kts | 52° |
| 2026-05-07 02:57 | 44.49894 | -79.08926 | 36977 ft | 573 kts | 52° |
| 2026-05-07 02:57 | 44.54443 | -78.99750 | 36971 ft | 573 kts | 52° |
| 2026-05-07 02:58 | 44.58983 | -78.90564 | 36974 ft | 573 kts | 52° |
| 2026-05-07 02:58 | 44.63492 | -78.81413 | 36971 ft | 573 kts | 52° |
| 2026-05-07 02:59 | 44.68015 | -78.72203 | 36965 ft | 572 kts | 53° |
| 2026-05-07 02:59 | 44.72525 | -78.62989 | 36966 ft | 572 kts | 53° |
| 2026-05-07 03:00 | 44.77031 | -78.53754 | 36946 ft | 572 kts | 52° |
| 2026-05-07 03:00 | 44.81525 | -78.44515 | 36966 ft | 572 kts | 53° |
| 2026-05-07 03:01 | 44.86012 | -78.35260 | 36958 ft | 571 kts | 53° |
| 2026-05-07 03:01 | 44.90487 | -78.26000 | 36952 ft | 571 kts | 53° |
| 2026-05-07 03:02 | 44.94952 | -78.16731 | 36938 ft | 571 kts | 53° |
| 2026-05-07 03:02 | 44.99412 | -78.07442 | 36935 ft | 571 kts | 53° |
| 2026-05-07 03:03 | 45.03857 | -77.98154 | 36934 ft | 570 kts | 53° |
| 2026-05-07 03:03 | 45.08293 | -77.88853 | 36916 ft | 570 kts | 53° |
| 2026-05-07 03:04 | 45.12694 | -77.79599 | 36925 ft | 570 kts | 53° |
| 2026-05-07 03:04 | 45.17108 | -77.70285 | 36909 ft | 569 kts | 54° |
| 2026-05-07 03:05 | 45.21511 | -77.60964 | 36903 ft | 569 kts | 54° |
| 2026-05-07 03:05 | 45.25164 | -77.53208 | 36895 ft | 569 kts | 54° |
| 2026-05-07 03:06 | 45.29549 | -77.43871 | 36907 ft | 568 kts | 54° |
| 2026-05-07 03:06 | 45.33915 | -77.34541 | 36892 ft | 567 kts | 54° |
| 2026-05-07 03:07 | 45.38273 | -77.25200 | 36886 ft | 567 kts | 54° |
| 2026-05-07 03:07 | 45.42624 | -77.15843 | 36890 ft | 566 kts | 54° |
| 2026-05-07 03:08 | 45.46961 | -77.06483 | 36867 ft | 566 kts | 54° |
| 2026-05-07 03:08 | 45.51282 | -76.97129 | 36876 ft | 564 kts | 54° |
| 2026-05-07 03:09 | 45.55587 | -76.87777 | 36877 ft | 564 kts | 54° |
| 2026-05-07 03:09 | 45.59887 | -76.78406 | 36873 ft | 564 kts | 54° |
| 2026-05-07 03:10 | 45.64177 | -76.69028 | 36867 ft | 564 kts | 55° |
| 2026-05-07 03:10 | 45.68455 | -76.59643 | 36867 ft | 563 kts | 55° |
| 2026-05-07 03:11 | 45.72726 | -76.50241 | 36861 ft | 563 kts | 55° |
| 2026-05-07 03:11 | 45.76982 | -76.40841 | 36875 ft | 563 kts | 55° |
| 2026-05-07 03:12 | 45.81230 | -76.31428 | 36857 ft | 562 kts | 55° |
| 2026-05-07 03:12 | 45.85460 | -76.22023 | 36854 ft | 561 kts | 56° |
| 2026-05-07 03:13 | 45.89690 | -76.12588 | 36848 ft | 562 kts | 56° |
| 2026-05-07 03:13 | 45.93910 | -76.03142 | 36833 ft | 561 kts | 56° |
| 2026-05-07 03:14 | 45.98119 | -75.93689 | 36845 ft | 561 kts | 56° |
| 2026-05-07 03:15 | 46.04387 | -75.79554 | 36846 ft | 561 kts | 56° |
| 2026-05-07 03:15 | 46.08572 | -75.70077 | 36849 ft | 561 kts | 56° |
| 2026-05-07 03:16 | 46.12751 | -75.60579 | 36844 ft | 561 kts | 56° |
| 2026-05-07 03:16 | 46.16916 | -75.51081 | 36818 ft | 560 kts | 56° |
| 2026-05-07 03:17 | 46.21074 | -75.41567 | 36842 ft | 560 kts | 56° |
| 2026-05-07 03:17 | 46.25222 | -75.32046 | 36845 ft | 560 kts | 56° |
| 2026-05-07 03:18 | 46.29359 | -75.22516 | 36836 ft | 560 kts | 57° |
| 2026-05-07 03:18 | 46.33491 | -75.12962 | 36835 ft | 560 kts | 57° |
| 2026-05-07 03:19 | 46.37615 | -75.03397 | 36836 ft | 560 kts | 57° |
| 2026-05-07 03:19 | 46.41731 | -74.93817 | 36833 ft | 559 kts | 57° |
| 2026-05-07 03:20 | 46.45825 | -74.84254 | 36839 ft | 558 kts | 57° |
| 2026-05-07 03:20 | 46.49909 | -74.74681 | 36837 ft | 558 kts | 57° |
| 2026-05-07 03:21 | 46.53989 | -74.65087 | 36837 ft | 558 kts | 57° |
| 2026-05-07 03:21 | 46.58057 | -74.55488 | 36836 ft | 558 kts | 57° |
| 2026-05-07 03:22 | 46.62120 | -74.45864 | 36838 ft | 558 kts | 57° |
| 2026-05-07 03:22 | 46.66168 | -74.36243 | 36837 ft | 557 kts | 57° |
| 2026-05-07 03:23 | 46.70200 | -74.26628 | 36837 ft | 556 kts | 58° |
| 2026-05-07 03:23 | 46.74225 | -74.16996 | 36833 ft | 556 kts | 58° |
| 2026-05-07 03:24 | 46.78241 | -74.07351 | 36829 ft | 556 kts | 58° |
| 2026-05-07 03:24 | 46.82249 | -73.97692 | 36828 ft | 556 kts | 58° |
| 2026-05-07 03:25 | 46.86244 | -73.88029 | 36797 ft | 556 kts | 58° |
| 2026-05-07 03:25 | 46.90229 | -73.78358 | 36821 ft | 554 kts | 58° |
| 2026-05-07 03:26 | 46.94198 | -73.68688 | 36824 ft | 554 kts | 58° |
| 2026-05-07 03:26 | 46.98160 | -73.59004 | 36821 ft | 554 kts | 58° |
| 2026-05-07 03:27 | 47.02108 | -73.49319 | 36824 ft | 554 kts | 59° |
| 2026-05-07 03:27 | 47.06052 | -73.39612 | 36823 ft | 554 kts | 59° |
| 2026-05-07 03:28 | 47.09981 | -73.29907 | 36804 ft | 553 kts | 59° |
| 2026-05-07 03:28 | 47.13875 | -73.20252 | 36821 ft | 553 kts | 59° |
| 2026-05-07 03:29 | 47.17805 | -73.10473 | 36821 ft | 552 kts | 59° |
| 2026-05-07 03:29 | 47.21677 | -73.00804 | 36822 ft | 552 kts | 59° |
| 2026-05-07 03:30 | 47.25566 | -72.91058 | 36822 ft | 552 kts | 59° |
| 2026-05-07 03:30 | 47.29444 | -72.81304 | 36824 ft | 552 kts | 60° |
| 2026-05-07 03:31 | 47.33312 | -72.71541 | 36822 ft | 552 kts | 60° |
| 2026-05-07 03:31 | 47.37173 | -72.61760 | 36820 ft | 551 kts | 60° |
| 2026-05-07 03:32 | 47.41020 | -72.51980 | 36814 ft | 551 kts | 60° |
| 2026-05-07 03:32 | 47.44860 | -72.42183 | 36814 ft | 551 kts | 60° |
| 2026-05-07 03:33 | 47.48690 | -72.32372 | 36809 ft | 551 kts | 60° |
| 2026-05-07 03:33 | 47.52510 | -72.22553 | 36809 ft | 551 kts | 60° |
| 2026-05-07 03:34 | 47.56324 | -72.12716 | 36804 ft | 551 kts | 60° |
| 2026-05-07 03:34 | 47.60127 | -72.02870 | 36808 ft | 550 kts | 60° |
| 2026-05-07 03:35 | 47.63915 | -71.93026 | 36810 ft | 550 kts | 60° |
| 2026-05-07 03:35 | 47.67696 | -71.83164 | 36801 ft | 550 kts | 61° |
| 2026-05-07 03:36 | 47.71471 | -71.73280 | 36798 ft | 550 kts | 61° |
| 2026-05-07 03:36 | 47.75212 | -71.63449 | 36796 ft | 550 kts | 61° |
| 2026-05-07 03:37 | 47.78968 | -71.53544 | 36788 ft | 549 kts | 62° |
| 2026-05-07 03:37 | 47.82704 | -71.43657 | 36786 ft | 548 kts | 62° |
| 2026-05-07 03:38 | 47.86426 | -71.33768 | 36782 ft | 548 kts | 62° |
| 2026-05-07 03:38 | 47.90143 | -71.23852 | 36782 ft | 548 kts | 62° |
| 2026-05-07 03:39 | 47.93852 | -71.13924 | 36780 ft | 548 kts | 62° |
| 2026-05-07 03:39 | 47.97552 | -71.03982 | 36779 ft | 548 kts | 62° |
| 2026-05-07 03:40 | 48.01244 | -70.94024 | 36796 ft | 548 kts | 63° |
| 2026-05-07 03:40 | 48.04921 | -70.84072 | 36802 ft | 546 kts | 63° |
| 2026-05-07 03:41 | 48.08583 | -70.74122 | 36801 ft | 546 kts | 63° |
| 2026-05-07 03:41 | 48.12237 | -70.64156 | 36797 ft | 546 kts | 63° |
| 2026-05-07 03:42 | 48.15880 | -70.54181 | 36802 ft | 546 kts | 63° |
| 2026-05-07 03:42 | 48.19509 | -70.44204 | 36806 ft | 545 kts | 63° |
| 2026-05-07 03:43 | 48.23135 | -70.34201 | 36795 ft | 545 kts | 63° |
| 2026-05-07 03:43 | 48.26741 | -70.24215 | 36809 ft | 544 kts | 64° |
| 2026-05-07 03:44 | 48.30315 | -70.14281 | 36800 ft | 544 kts | 64° |
| 2026-05-07 03:44 | 48.33898 | -70.04280 | 36805 ft | 544 kts | 64° |
| 2026-05-07 03:45 | 48.37480 | -69.94246 | 36804 ft | 544 kts | 64° |
| 2026-05-07 03:45 | 48.41051 | -69.84206 | 36816 ft | 544 kts | 64° |
| 2026-05-07 03:46 | 48.44613 | -69.74151 | 36789 ft | 545 kts | 64° |
| 2026-05-07 03:46 | 48.48178 | -69.64046 | 36807 ft | 546 kts | 64° |
| 2026-05-07 03:47 | 48.51730 | -69.53939 | 36804 ft | 546 kts | 64° |
| 2026-05-07 03:47 | 48.55343 | -69.43871 | 36802 ft | 547 kts | 59° |
| 2026-05-07 03:48 | 48.59944 | -69.34700 | 36804 ft | 549 kts | 52° |
| 2026-05-07 03:48 | 48.64821 | -69.25808 | 36804 ft | 549 kts | 51° |
| 2026-05-07 03:49 | 48.69736 | -69.16938 | 36803 ft | 549 kts | 51° |
| 2026-05-07 03:49 | 48.74632 | -69.08039 | 36807 ft | 549 kts | 51° |
| 2026-05-07 03:50 | 48.78680 | -69.00633 | 36804 ft | 549 kts | 51° |
| 2026-05-07 03:50 | 48.83540 | -68.91703 | 36805 ft | 548 kts | 51° |
| 2026-05-07 03:51 | 48.89173 | -68.81314 | 36805 ft | 548 kts | 51° |
| 2026-05-07 03:51 | 48.93229 | -68.73812 | 36804 ft | 548 kts | 52° |
| 2026-05-07 03:52 | 48.98065 | -68.64837 | 36805 ft | 548 kts | 52° |
| 2026-05-07 03:52 | 49.02892 | -68.55850 | 36807 ft | 548 kts | 52° |
| 2026-05-07 03:53 | 49.07681 | -68.46902 | 36808 ft | 548 kts | 52° |
| 2026-05-07 03:53 | 49.12492 | -68.37884 | 36787 ft | 548 kts | 52° |
| 2026-05-07 03:54 | 49.17301 | -68.28838 | 36786 ft | 548 kts | 52° |
| 2026-05-07 03:54 | 49.22098 | -68.19784 | 36801 ft | 548 kts | 52° |
| 2026-05-07 03:55 | 49.26895 | -68.10700 | 36803 ft | 549 kts | 52° |
| 2026-05-07 03:55 | 49.31689 | -68.01589 | 36806 ft | 550 kts | 52° |
| 2026-05-07 03:56 | 49.36484 | -67.92446 | 36810 ft | 550 kts | 52° |
| 2026-05-07 03:56 | 49.41266 | -67.83295 | 36810 ft | 550 kts | 52° |
| 2026-05-07 03:57 | 49.46052 | -67.74105 | 36806 ft | 551 kts | 52° |
| 2026-05-07 03:57 | 49.50831 | -67.64897 | 36806 ft | 551 kts | 52° |
| 2026-05-07 03:58 | 49.55599 | -67.55677 | 36808 ft | 551 kts | 52° |
| 2026-05-07 03:58 | 49.60364 | -67.46431 | 36813 ft | 551 kts | 53° |
| 2026-05-07 03:59 | 49.65127 | -67.37158 | 36798 ft | 551 kts | 53° |
| 2026-05-07 03:59 | 49.69887 | -67.27855 | 36814 ft | 552 kts | 53° |
| 2026-05-07 04:00 | 49.74644 | -67.18527 | 36815 ft | 552 kts | 53° |
| 2026-05-07 04:00 | 49.79362 | -67.09242 | 36823 ft | 553 kts | 53° |
| 2026-05-07 04:01 | 49.84104 | -66.99879 | 36819 ft | 553 kts | 53° |
| 2026-05-07 04:01 | 49.88842 | -66.90488 | 36819 ft | 553 kts | 53° |
| 2026-05-07 04:02 | 49.93568 | -66.81090 | 36827 ft | 552 kts | 53° |
| 2026-05-07 04:02 | 49.98282 | -66.71680 | 36812 ft | 551 kts | 53° |
| 2026-05-07 04:03 | 50.02981 | -66.62266 | 36820 ft | 551 kts | 53° |
| 2026-05-07 04:03 | 50.07667 | -66.52845 | 36825 ft | 551 kts | 53° |
| 2026-05-07 04:04 | 50.12346 | -66.43406 | 36820 ft | 550 kts | 53° |
| 2026-05-07 04:04 | 50.17011 | -66.33959 | 36823 ft | 549 kts | 53° |
| 2026-05-07 04:05 | 50.21660 | -66.24512 | 36823 ft | 549 kts | 54° |
| 2026-05-07 04:05 | 50.26307 | -66.15035 | 36823 ft | 549 kts | 54° |
| 2026-05-07 04:06 | 50.30943 | -66.05545 | 36820 ft | 550 kts | 54° |
| 2026-05-07 04:06 | 50.35582 | -65.96014 | 36821 ft | 550 kts | 54° |
| 2026-05-07 04:07 | 50.40211 | -65.86469 | 36822 ft | 550 kts | 54° |
| 2026-05-07 04:07 | 50.44803 | -65.76968 | 36836 ft | 550 kts | 54° |
| 2026-05-07 04:08 | 50.49418 | -65.67384 | 36817 ft | 551 kts | 54° |
| 2026-05-07 04:08 | 50.54031 | -65.57768 | 36819 ft | 551 kts | 54° |
| 2026-05-07 04:09 | 50.58634 | -65.48138 | 36825 ft | 551 kts | 54° |
| 2026-05-07 04:09 | 50.63234 | -65.38479 | 36824 ft | 551 kts | 54° |
| 2026-05-07 04:10 | 50.67831 | -65.28790 | 36824 ft | 552 kts | 54° |
| 2026-05-07 04:10 | 50.72427 | -65.19068 | 36829 ft | 553 kts | 55° |
| 2026-05-07 04:11 | 50.77017 | -65.09323 | 36836 ft | 553 kts | 55° |
| 2026-05-07 04:11 | 50.81597 | -64.99561 | 36835 ft | 553 kts | 55° |
| 2026-05-07 04:12 | 50.86164 | -64.89791 | 36841 ft | 552 kts | 55° |
| 2026-05-07 04:12 | 50.90727 | -64.79991 | 36836 ft | 553 kts | 55° |
| 2026-05-07 04:13 | 50.95279 | -64.70178 | 36856 ft | 552 kts | 55° |
| 2026-05-07 04:13 | 50.99829 | -64.60332 | 36843 ft | 555 kts | 55° |
| 2026-05-07 04:14 | 51.04392 | -64.50426 | 36849 ft | 556 kts | 56° |
| 2026-05-07 04:14 | 51.08918 | -64.40560 | 36846 ft | 556 kts | 56° |
| 2026-05-07 04:15 | 51.13467 | -64.30606 | 36855 ft | 556 kts | 56° |
| 2026-05-07 04:15 | 51.18007 | -64.20632 | 36854 ft | 556 kts | 56° |
| 2026-05-07 04:16 | 51.22545 | -64.10623 | 36854 ft | 557 kts | 56° |
| 2026-05-07 04:16 | 51.27072 | -64.00602 | 36853 ft | 557 kts | 56° |
| 2026-05-07 04:17 | 51.31595 | -63.90551 | 36850 ft | 557 kts | 56° |
| 2026-05-07 04:17 | 51.36113 | -63.80471 | 36838 ft | 558 kts | 56° |
| 2026-05-07 04:18 | 51.40622 | -63.70371 | 36824 ft | 558 kts | 56° |
| 2026-05-07 04:18 | 51.45133 | -63.60230 | 36842 ft | 558 kts | 56° |
| 2026-05-07 04:19 | 51.49632 | -63.50074 | 36855 ft | 559 kts | 56° |
| 2026-05-07 04:19 | 51.54130 | -63.39881 | 36835 ft | 559 kts | 56° |
| 2026-05-07 04:20 | 51.58590 | -63.29734 | 36836 ft | 559 kts | 56° |
| 2026-05-07 04:20 | 51.63072 | -63.19497 | 36870 ft | 559 kts | 57° |
| 2026-05-07 04:21 | 51.69778 | -63.04104 | 36851 ft | 560 kts | 57° |
| 2026-05-07 04:21 | 51.74244 | -62.93801 | 36849 ft | 560 kts | 57° |
| 2026-05-07 04:22 | 51.78703 | -62.83474 | 36855 ft | 560 kts | 57° |
| 2026-05-07 04:22 | 51.83147 | -62.73140 | 36844 ft | 560 kts | 57° |
| 2026-05-07 04:23 | 51.87595 | -62.62754 | 36856 ft | 562 kts | 57° |
| 2026-05-07 04:23 | 51.92039 | -62.52338 | 36857 ft | 562 kts | 57° |
| 2026-05-07 04:24 | 51.96473 | -62.41902 | 36856 ft | 562 kts | 57° |
| 2026-05-07 04:24 | 52.00893 | -62.31454 | 36865 ft | 562 kts | 57° |
| 2026-05-07 04:25 | 52.05283 | -62.21037 | 36865 ft | 562 kts | 57° |
| 2026-05-07 04:25 | 52.09715 | -62.10478 | 36866 ft | 562 kts | 58° |
| 2026-05-07 04:26 | 52.14086 | -62.00020 | 36869 ft | 562 kts | 58° |
| 2026-05-07 04:26 | 52.18478 | -61.89469 | 36869 ft | 563 kts | 58° |
| 2026-05-07 04:27 | 52.22863 | -61.78892 | 36866 ft | 563 kts | 58° |
| 2026-05-07 04:27 | 52.27231 | -61.68311 | 36854 ft | 563 kts | 58° |
| 2026-05-07 04:28 | 52.31596 | -61.57694 | 36871 ft | 562 kts | 58° |
| 2026-05-07 04:28 | 52.35946 | -61.47070 | 36874 ft | 563 kts | 58° |
| 2026-05-07 04:29 | 52.40295 | -61.36403 | 36873 ft | 563 kts | 58° |
| 2026-05-07 04:29 | 52.44626 | -61.25736 | 36871 ft | 563 kts | 58° |
| 2026-05-07 04:30 | 52.48952 | -61.15037 | 36873 ft | 563 kts | 58° |
| 2026-05-07 04:30 | 52.53268 | -61.04317 | 36878 ft | 563 kts | 58° |
| 2026-05-07 04:31 | 52.57571 | -60.93585 | 36878 ft | 562 kts | 58° |
| 2026-05-07 04:31 | 52.61867 | -60.82827 | 36878 ft | 562 kts | 58° |
| 2026-05-07 04:32 | 52.66148 | -60.72058 | 36877 ft | 562 kts | 58° |
| 2026-05-07 04:32 | 52.70390 | -60.61342 | 36872 ft | 561 kts | 58° |
| 2026-05-07 04:33 | 52.74641 | -60.50560 | 36876 ft | 560 kts | 58° |
| 2026-05-07 04:33 | 52.78879 | -60.39763 | 36894 ft | 560 kts | 58° |
| 2026-05-07 04:34 | 52.83104 | -60.28952 | 36877 ft | 560 kts | 58° |
| 2026-05-07 04:34 | 52.87324 | -60.18110 | 36885 ft | 560 kts | 59° |
| 2026-05-07 04:35 | 52.91528 | -60.07263 | 36882 ft | 560 kts | 59° |
| 2026-05-07 04:35 | 52.95728 | -59.96379 | 36884 ft | 560 kts | 59° |
| 2026-05-07 04:36 | 52.99909 | -59.85495 | 36879 ft | 560 kts | 59° |
| 2026-05-07 04:36 | 53.04091 | -59.74565 | 36889 ft | 560 kts | 59° |
| 2026-05-07 04:37 | 53.08235 | -59.63687 | 36888 ft | 560 kts | 59° |
| 2026-05-07 04:37 | 53.12393 | -59.52722 | 36889 ft | 560 kts | 59° |
| 2026-05-07 04:38 | 53.16534 | -59.41757 | 36889 ft | 559 kts | 59° |
| 2026-05-07 04:38 | 53.20666 | -59.30766 | 36892 ft | 559 kts | 59° |
| 2026-05-07 04:39 | 53.24124 | -59.21531 | 36893 ft | 559 kts | 59° |
| 2026-05-07 04:39 | 53.28206 | -59.10588 | 36892 ft | 559 kts | 59° |
| 2026-05-07 04:40 | 53.32308 | -58.99541 | 36895 ft | 559 kts | 59° |
| 2026-05-07 04:40 | 53.36394 | -58.88486 | 36901 ft | 559 kts | 59° |
| 2026-05-07 04:41 | 53.40474 | -58.77401 | 36899 ft | 559 kts | 59° |
| 2026-05-07 04:41 | 53.44539 | -58.66308 | 36911 ft | 558 kts | 59° |
| 2026-05-07 04:42 | 53.48597 | -58.55183 | 36894 ft | 559 kts | 59° |
| 2026-05-07 04:42 | 53.52646 | -58.44034 | 36878 ft | 559 kts | 59° |
| 2026-05-07 04:43 | 53.56679 | -58.32881 | 36891 ft | 557 kts | 59° |
| 2026-05-07 04:43 | 53.60696 | -58.21720 | 36897 ft | 557 kts | 59° |
| 2026-05-07 04:44 | 53.64673 | -58.10621 | 36886 ft | 557 kts | 60° |
| 2026-05-07 04:44 | 53.68664 | -57.99433 | 36896 ft | 556 kts | 60° |
| 2026-05-07 04:45 | 53.72644 | -57.88223 | 36896 ft | 556 kts | 60° |
| 2026-05-07 04:45 | 53.76615 | -57.76992 | 36898 ft | 556 kts | 60° |
| 2026-05-07 04:46 | 53.80572 | -57.65748 | 36883 ft | 556 kts | 60° |
| 2026-05-07 04:46 | 53.84513 | -57.54497 | 36888 ft | 556 kts | 60° |
| 2026-05-07 04:47 | 53.88442 | -57.43230 | 36884 ft | 556 kts | 60° |
| 2026-05-07 04:47 | 53.92363 | -57.31936 | 36837 ft | 555 kts | 60° |
| 2026-05-07 04:48 | 53.96269 | -57.20632 | 36875 ft | 554 kts | 60° |
| 2026-05-07 04:48 | 54.00158 | -57.09326 | 36875 ft | 554 kts | 60° |
| 2026-05-07 04:49 | 54.04031 | -56.98012 | 36870 ft | 554 kts | 61° |
| 2026-05-07 04:49 | 54.07759 | -56.86638 | 36870 ft | 553 kts | 63° |
| 2026-05-07 04:50 | 54.11426 | -56.75113 | 36872 ft | 553 kts | 63° |
| 2026-05-07 04:50 | 54.15098 | -56.63573 | 36878 ft | 553 kts | 63° |
| 2026-05-07 04:51 | 54.18773 | -56.52042 | 36878 ft | 553 kts | 63° |
| 2026-05-07 04:51 | 54.22448 | -56.40479 | 36882 ft | 553 kts | 63° |
| 2026-05-07 04:52 | 54.26109 | -56.28907 | 36881 ft | 553 kts | 63° |
| 2026-05-07 04:52 | 54.29761 | -56.17300 | 36879 ft | 553 kts | 63° |
| 2026-05-07 04:53 | 54.33398 | -56.05685 | 36889 ft | 553 kts | 63° |
| 2026-05-07 04:53 | 54.37027 | -55.94039 | 36892 ft | 553 kts | 63° |
| 2026-05-07 04:54 | 54.40642 | -55.82385 | 36892 ft | 554 kts | 63° |
| 2026-05-07 04:54 | 54.44250 | -55.70694 | 36895 ft | 554 kts | 63° |
| 2026-05-07 04:55 | 54.47845 | -55.58987 | 36900 ft | 554 kts | 63° |
| 2026-05-07 04:55 | 54.51407 | -55.47333 | 36900 ft | 554 kts | 63° |
| 2026-05-07 04:56 | 54.54976 | -55.35595 | 36903 ft | 553 kts | 64° |
| 2026-05-07 04:56 | 54.58537 | -55.23828 | 36908 ft | 553 kts | 64° |
| 2026-05-07 04:57 | 54.62082 | -55.12053 | 36911 ft | 553 kts | 64° |
| 2026-05-07 04:57 | 54.65616 | -55.00259 | 36911 ft | 553 kts | 64° |
| 2026-05-07 04:58 | 54.69142 | -54.88432 | 36912 ft | 553 kts | 64° |
| 2026-05-07 04:58 | 54.72645 | -54.76623 | 36922 ft | 552 kts | 64° |
| 2026-05-07 04:59 | 54.76136 | -54.64796 | 36922 ft | 552 kts | 64° |
| 2026-05-07 04:59 | 54.79615 | -54.52948 | 36922 ft | 552 kts | 64° |
| 2026-05-07 05:00 | 54.83081 | -54.41085 | 36927 ft | 552 kts | 64° |
| 2026-05-07 05:00 | 54.86533 | -54.29209 | 36930 ft | 550 kts | 65° |
| 2026-05-07 05:01 | 54.89966 | -54.17344 | 36930 ft | 550 kts | 65° |
| 2026-05-07 05:01 | 54.93388 | -54.05454 | 36930 ft | 550 kts | 65° |
| 2026-05-07 05:02 | 54.96797 | -53.93545 | 36936 ft | 550 kts | 65° |
| 2026-05-07 05:02 | 55.00187 | -53.81645 | 36883 ft | 548 kts | 65° |
| 2026-05-07 05:03 | 55.03565 | -53.69734 | 36939 ft | 548 kts | 64° |
| 2026-05-07 05:03 | 55.06923 | -53.57822 | 36944 ft | 547 kts | 65° |
| 2026-05-07 05:04 | 55.10250 | -53.45956 | 36946 ft | 547 kts | 65° |
| 2026-05-07 05:04 | 55.13583 | -53.34010 | 36944 ft | 546 kts | 65° |
| 2026-05-07 05:05 | 55.16899 | -53.22066 | 36957 ft | 546 kts | 65° |
| 2026-05-07 05:05 | 55.20202 | -53.10107 | 36950 ft | 546 kts | 65° |
| 2026-05-07 05:06 | 55.23496 | -52.98118 | 36960 ft | 546 kts | 65° |
| 2026-05-07 05:06 | 55.26774 | -52.86123 | 36959 ft | 546 kts | 65° |
| 2026-05-07 05:07 | 55.30043 | -52.74099 | 36960 ft | 545 kts | 65° |
| 2026-05-07 05:07 | 55.33294 | -52.62080 | 36956 ft | 545 kts | 65° |
| 2026-05-07 05:08 | 55.36536 | -52.50032 | 36955 ft | 545 kts | 65° |
| 2026-05-07 05:08 | 55.39762 | -52.37979 | 36967 ft | 544 kts | 65° |
| 2026-05-07 05:09 | 55.42949 | -52.26006 | 36968 ft | 543 kts | 65° |
| 2026-05-07 05:09 | 55.46144 | -52.13937 | 36966 ft | 543 kts | 65° |
| 2026-05-07 05:10 | 55.49329 | -52.01846 | 36964 ft | 543 kts | 65° |
| 2026-05-07 05:10 | 55.52497 | -51.89753 | 36964 ft | 543 kts | 65° |
| 2026-05-07 05:11 | 55.55656 | -51.77631 | 36965 ft | 543 kts | 65° |
| 2026-05-07 05:11 | 55.58798 | -51.65505 | 36966 ft | 543 kts | 66° |
| 2026-05-07 05:12 | 55.61935 | -51.53335 | 36970 ft | 543 kts | 66° |
| 2026-05-07 05:12 | 55.65054 | -51.41167 | 36970 ft | 543 kts | 66° |
| 2026-05-07 05:13 | 55.68143 | -51.29049 | 36962 ft | 542 kts | 65° |
| 2026-05-07 05:13 | 55.71228 | -51.16887 | 36975 ft | 540 kts | 65° |
| 2026-05-07 05:14 | 55.74296 | -51.04722 | 36977 ft | 540 kts | 65° |
| 2026-05-07 05:14 | 55.77349 | -50.92548 | 36976 ft | 540 kts | 66° |
| 2026-05-07 05:15 | 55.80393 | -50.80347 | 36998 ft | 540 kts | 66° |
| 2026-05-07 05:15 | 55.83422 | -50.68136 | 36985 ft | 539 kts | 66° |
| 2026-05-07 05:16 | 55.86434 | -50.55923 | 36985 ft | 539 kts | 66° |
| 2026-05-07 05:16 | 55.89432 | -50.43703 | 36991 ft | 539 kts | 66° |
| 2026-05-07 05:17 | 55.92422 | -50.31445 | 36991 ft | 539 kts | 66° |
| 2026-05-07 05:17 | 55.95397 | -50.19181 | 36996 ft | 538 kts | 66° |
| 2026-05-07 05:18 | 55.98357 | -50.06910 | 36997 ft | 538 kts | 66° |
| 2026-05-07 05:18 | 56.00804 | -49.94319 | 36989 ft | 536 kts | 75° |
| 2026-05-07 05:19 | 56.02702 | -49.81458 | 37009 ft | 535 kts | 76° |
| 2026-05-07 05:19 | 56.04510 | -49.68559 | 37012 ft | 535 kts | 76° |
| 2026-05-07 05:20 | 56.06290 | -49.55738 | 37004 ft | 534 kts | 76° |
| 2026-05-07 05:20 | 56.08080 | -49.42836 | 37011 ft | 534 kts | 76° |
| 2026-05-07 05:21 | 56.10747 | -49.23467 | 37013 ft | 534 kts | 76° |
| 2026-05-07 05:22 | 56.12507 | -49.10552 | 37012 ft | 534 kts | 77° |
| 2026-05-07 05:22 | 56.14254 | -48.97614 | 37024 ft | 533 kts | 76° |
| 2026-05-07 05:23 | 56.15983 | -48.84697 | 37021 ft | 532 kts | 76° |
| 2026-05-07 05:23 | 56.17696 | -48.71783 | 37026 ft | 532 kts | 76° |
| 2026-05-07 05:24 | 56.19396 | -48.58859 | 37027 ft | 532 kts | 76° |
| 2026-05-07 05:24 | 56.21083 | -48.45922 | 37037 ft | 532 kts | 77° |
| 2026-05-07 05:25 | 56.22756 | -48.32976 | 37023 ft | 532 kts | 76° |
| 2026-05-07 05:25 | 56.24415 | -48.20019 | 37044 ft | 532 kts | 77° |
| 2026-05-07 05:26 | 56.26061 | -48.07054 | 37047 ft | 532 kts | 77° |
| 2026-05-07 05:26 | 56.27692 | -47.94079 | 37043 ft | 531 kts | 76° |
| 2026-05-07 05:27 | 56.29306 | -47.81125 | 37057 ft | 530 kts | 77° |
| 2026-05-07 05:27 | 56.30895 | -47.68256 | 37065 ft | 530 kts | 76° |
| 2026-05-07 05:28 | 56.32223 | -47.57403 | 37056 ft | 530 kts | 77° |
| 2026-05-07 05:28 | 56.34052 | -47.42326 | 37067 ft | 530 kts | 77° |
| 2026-05-07 05:29 | 56.35611 | -47.29344 | 37075 ft | 530 kts | 77° |
| 2026-05-07 05:29 | 56.36906 | -47.18454 | 37077 ft | 530 kts | 77° |
| 2026-05-07 05:30 | 56.38438 | -47.05466 | 37096 ft | 530 kts | 77° |
| 2026-05-07 05:30 | 56.39958 | -46.92446 | 37093 ft | 530 kts | 76° |
| 2026-05-07 05:31 | 56.41464 | -46.79426 | 37094 ft | 529 kts | 77° |
| 2026-05-07 05:31 | 56.42956 | -46.66403 | 37095 ft | 529 kts | 77° |
| 2026-05-07 05:32 | 56.44421 | -46.53476 | 37109 ft | 529 kts | 77° |
| 2026-05-07 05:32 | 56.45886 | -46.40433 | 37109 ft | 529 kts | 77° |
| 2026-05-07 05:33 | 56.47337 | -46.27375 | 37118 ft | 530 kts | 77° |
| 2026-05-07 05:33 | 56.48777 | -46.14281 | 37124 ft | 530 kts | 77° |
| 2026-05-07 05:34 | 56.50200 | -46.01207 | 37129 ft | 530 kts | 77° |
| 2026-05-07 05:34 | 56.51610 | -45.88108 | 37133 ft | 529 kts | 77° |
| 2026-05-07 05:35 | 56.53005 | -45.75024 | 37146 ft | 529 kts | 77° |
| 2026-05-07 05:35 | 56.54383 | -45.61952 | 37150 ft | 528 kts | 77° |
| 2026-05-07 05:36 | 56.55749 | -45.48863 | 37151 ft | 528 kts | 77° |
| 2026-05-07 05:36 | 56.57100 | -45.35772 | 37152 ft | 529 kts | 77° |
| 2026-05-07 05:37 | 56.58439 | -45.22658 | 37161 ft | 529 kts | 77° |
| 2026-05-07 05:37 | 56.59764 | -45.09534 | 37162 ft | 528 kts | 77° |
| 2026-05-07 05:38 | 56.61073 | -44.96415 | 37169 ft | 529 kts | 77° |
| 2026-05-07 05:38 | 56.62363 | -44.83344 | 37177 ft | 529 kts | 77° |
| 2026-05-07 05:39 | 56.63647 | -44.70190 | 37190 ft | 529 kts | 77° |
| 2026-05-07 05:39 | 56.64915 | -44.57046 | 37189 ft | 528 kts | 77° |
| 2026-05-07 05:40 | 56.66173 | -44.43867 | 37195 ft | 528 kts | 77° |
| 2026-05-07 05:40 | 56.67414 | -44.30693 | 37189 ft | 529 kts | 77° |
| 2026-05-07 05:41 | 56.68643 | -44.17495 | 37198 ft | 529 kts | 77° |
| 2026-05-07 05:41 | 56.69858 | -44.04294 | 37197 ft | 529 kts | 77° |
| 2026-05-07 05:42 | 56.71059 | -43.91074 | 37204 ft | 529 kts | 77° |
| 2026-05-07 05:42 | 56.72247 | -43.77846 | 37209 ft | 529 kts | 77° |
| 2026-05-07 05:43 | 56.73420 | -43.64608 | 37225 ft | 529 kts | 77° |
| 2026-05-07 05:43 | 56.74579 | -43.51371 | 37217 ft | 529 kts | 77° |
| 2026-05-07 05:44 | 56.75721 | -43.38151 | 37222 ft | 529 kts | 77° |
| 2026-05-07 05:44 | 56.76851 | -43.24909 | 37219 ft | 529 kts | 78° |
| 2026-05-07 05:45 | 56.77968 | -43.11654 | 37230 ft | 529 kts | 78° |
| 2026-05-07 05:45 | 56.79063 | -42.98469 | 37250 ft | 529 kts | 78° |
| 2026-05-07 05:46 | 56.80148 | -42.85219 | 37243 ft | 527 kts | 78° |
| 2026-05-07 05:46 | 56.81219 | -42.71986 | 37243 ft | 525 kts | 78° |
| 2026-05-07 05:47 | 56.82268 | -42.58829 | 37250 ft | 524 kts | 78° |
| 2026-05-07 05:47 | 56.83305 | -42.45662 | 37246 ft | 524 kts | 78° |
| 2026-05-07 05:48 | 56.84328 | -42.32487 | 37286 ft | 524 kts | 78° |
| 2026-05-07 05:48 | 56.85333 | -42.19339 | 37268 ft | 521 kts | 78° |
| 2026-05-07 05:49 | 56.86321 | -42.06228 | 37261 ft | 520 kts | 78° |
| 2026-05-07 05:49 | 56.87295 | -41.93129 | 37256 ft | 521 kts | 78° |
| 2026-05-07 05:50 | 56.88258 | -41.79992 | 37268 ft | 521 kts | 78° |
| 2026-05-07 05:50 | 56.89205 | -41.66861 | 37262 ft | 520 kts | 78° |
| 2026-05-07 05:51 | 56.90134 | -41.53767 | 37273 ft | 518 kts | 78° |
| 2026-05-07 05:51 | 56.91049 | -41.40694 | 37279 ft | 518 kts | 79° |
| 2026-05-07 05:52 | 56.91950 | -41.27634 | 37281 ft | 518 kts | 79° |
| 2026-05-07 05:52 | 56.92834 | -41.14619 | 37284 ft | 518 kts | 79° |
| 2026-05-07 05:53 | 56.93707 | -41.01539 | 37286 ft | 518 kts | 79° |
| 2026-05-07 05:53 | 56.94568 | -40.88435 | 37292 ft | 518 kts | 79° |
| 2026-05-07 05:54 | 56.95417 | -40.75309 | 37294 ft | 519 kts | 79° |
| 2026-05-07 05:54 | 56.96251 | -40.62169 | 37289 ft | 519 kts | 79° |
| 2026-05-07 05:55 | 56.97075 | -40.48998 | 37292 ft | 520 kts | 79° |
| 2026-05-07 05:55 | 56.97884 | -40.35807 | 37297 ft | 521 kts | 79° |
| 2026-05-07 05:56 | 56.98679 | -40.22624 | 37313 ft | 521 kts | 79° |
| 2026-05-07 05:56 | 56.99466 | -40.09353 | 37307 ft | 524 kts | 79° |
| 2026-05-07 05:57 | 57.00601 | -39.96213 | 37306 ft | 519 kts | 71° |
| 2026-05-07 05:57 | 57.02344 | -39.83376 | 37306 ft | 518 kts | 70° |
| 2026-05-07 05:58 | 57.04163 | -39.70578 | 37305 ft | 518 kts | 70° |
| 2026-05-07 05:58 | 57.05976 | -39.57770 | 37312 ft | 518 kts | 70° |
| 2026-05-07 05:59 | 57.07744 | -39.45081 | 37307 ft | 516 kts | 70° |
| 2026-05-07 05:59 | 57.09500 | -39.32330 | 37316 ft | 513 kts | 70° |
| 2026-05-07 06:00 | 57.11234 | -39.19625 | 37313 ft | 512 kts | 70° |
| 2026-05-07 06:00 | 57.12956 | -39.06912 | 37320 ft | 512 kts | 70° |
| 2026-05-07 06:01 | 57.14667 | -38.94183 | 37320 ft | 512 kts | 70° |
| 2026-05-07 06:01 | 57.16364 | -38.81441 | 37317 ft | 512 kts | 70° |
| 2026-05-07 06:02 | 57.18048 | -38.68684 | 37319 ft | 512 kts | 71° |
| 2026-05-07 06:02 | 57.19719 | -38.55914 | 37318 ft | 512 kts | 71° |
| 2026-05-07 06:03 | 57.21378 | -38.43131 | 37313 ft | 512 kts | 71° |
| 2026-05-07 06:03 | 57.23018 | -38.30376 | 37319 ft | 508 kts | 71° |
| 2026-05-07 06:04 | 57.24631 | -38.17711 | 37318 ft | 506 kts | 71° |
| 2026-05-07 06:04 | 57.26221 | -38.05138 | 37317 ft | 506 kts | 71° |
| 2026-05-07 06:05 | 57.27810 | -37.92466 | 37304 ft | 506 kts | 71° |
| 2026-05-07 06:05 | 57.29381 | -37.79814 | 37304 ft | 505 kts | 71° |
| 2026-05-07 06:06 | 57.30941 | -37.67141 | 37319 ft | 506 kts | 71° |
| 2026-05-07 06:06 | 57.32490 | -37.54442 | 37319 ft | 506 kts | 72° |
| 2026-05-07 06:07 | 57.34026 | -37.41729 | 37323 ft | 506 kts | 72° |
| 2026-05-07 06:07 | 57.35550 | -37.29005 | 37322 ft | 506 kts | 72° |
| 2026-05-07 06:08 | 57.37060 | -37.16269 | 37320 ft | 506 kts | 72° |
| 2026-05-07 06:08 | 57.38560 | -37.03516 | 37327 ft | 508 kts | 72° |
| 2026-05-07 06:09 | 57.40054 | -36.90690 | 37318 ft | 509 kts | 72° |
| 2026-05-07 06:09 | 57.41534 | -36.77848 | 37325 ft | 509 kts | 72° |
| 2026-05-07 06:10 | 57.42992 | -36.65079 | 37324 ft | 509 kts | 72° |
| 2026-05-07 06:10 | 57.44447 | -36.52210 | 37361 ft | 509 kts | 72° |
| 2026-05-07 06:11 | 57.45891 | -36.39318 | 37330 ft | 510 kts | 73° |
| 2026-05-07 06:11 | 57.47322 | -36.26411 | 37330 ft | 510 kts | 73° |
| 2026-05-07 06:12 | 57.48741 | -36.13477 | 37324 ft | 510 kts | 73° |
| 2026-05-07 06:12 | 57.50146 | -36.00548 | 37323 ft | 511 kts | 73° |
| 2026-05-07 06:13 | 57.51539 | -35.87594 | 37366 ft | 511 kts | 73° |
| 2026-05-07 06:13 | 57.52916 | -35.74653 | 37324 ft | 509 kts | 73° |
| 2026-05-07 06:14 | 57.54275 | -35.61742 | 37328 ft | 509 kts | 73° |
| 2026-05-07 06:14 | 57.55624 | -35.48807 | 37325 ft | 509 kts | 73° |
| 2026-05-07 06:15 | 57.56961 | -35.35855 | 37328 ft | 509 kts | 73° |
| 2026-05-07 06:15 | 57.58283 | -35.22896 | 37350 ft | 509 kts | 73° |
| 2026-05-07 06:16 | 57.59371 | -35.12126 | 37322 ft | 509 kts | 73° |
| 2026-05-07 06:16 | 57.60879 | -34.97045 | 37322 ft | 509 kts | 73° |
| 2026-05-07 06:17 | 57.61954 | -34.86177 | 37323 ft | 509 kts | 73° |
| 2026-05-07 06:17 | 57.63228 | -34.73167 | 37322 ft | 509 kts | 74° |
| 2026-05-07 06:18 | 57.64487 | -34.60154 | 37357 ft | 510 kts | 73° |
| 2026-05-07 06:18 | 57.65733 | -34.47123 | 37323 ft | 511 kts | 74° |
| 2026-05-07 06:19 | 57.66968 | -34.34057 | 37323 ft | 511 kts | 74° |
| 2026-05-07 06:19 | 57.68189 | -34.20982 | 37317 ft | 511 kts | 74° |
| 2026-05-07 06:20 | 57.69397 | -34.07907 | 37317 ft | 511 kts | 74° |
| 2026-05-07 06:20 | 57.70593 | -33.94801 | 37346 ft | 511 kts | 74° |
| 2026-05-07 06:21 | 57.71774 | -33.81704 | 37320 ft | 511 kts | 74° |
| 2026-05-07 06:21 | 57.72942 | -33.68593 | 37320 ft | 511 kts | 75° |
| 2026-05-07 06:22 | 57.74099 | -33.55454 | 37315 ft | 511 kts | 75° |
| 2026-05-07 06:22 | 57.75808 | -33.35732 | 37316 ft | 511 kts | 75° |
| 2026-05-07 06:23 | 57.76922 | -33.22669 | 37315 ft | 512 kts | 75° |
| 2026-05-07 06:23 | 57.78031 | -33.09497 | 37318 ft | 512 kts | 75° |
| 2026-05-07 06:24 | 57.79126 | -32.96325 | 37310 ft | 512 kts | 75° |
| 2026-05-07 06:24 | 57.80209 | -32.83124 | 37308 ft | 512 kts | 75° |
| 2026-05-07 06:25 | 57.81281 | -32.69903 | 37402 ft | 515 kts | 76° |
| 2026-05-07 06:25 | 57.81815 | -32.63250 | 37646 ft | 516 kts | 76° |
| 2026-05-07 06:25 | 57.82344 | -32.56607 | 37915 ft | 515 kts | 76° |
| 2026-05-07 06:26 | 57.82870 | -32.49947 | 38157 ft | 515 kts | 77° |
| 2026-05-07 06:26 | 57.83393 | -32.43285 | 38388 ft | 516 kts | 77° |
| 2026-05-07 06:26 | 57.83911 | -32.36633 | 38611 ft | 516 kts | 77° |
| 2026-05-07 06:26 | 57.84427 | -32.29969 | 38836 ft | 516 kts | 77° |
| 2026-05-07 06:27 | 57.84939 | -32.23299 | 39033 ft | 516 kts | 77° |
| 2026-05-07 06:27 | 57.85448 | -32.16638 | 39193 ft | 516 kts | 77° |
| 2026-05-07 06:27 | 57.86457 | -32.03283 | 39324 ft | 517 kts | 78° |
| 2026-05-07 06:28 | 57.87443 | -31.90023 | 39305 ft | 516 kts | 78° |
| 2026-05-07 06:28 | 57.88423 | -31.76656 | 39291 ft | 516 kts | 78° |
| 2026-05-07 06:29 | 57.89388 | -31.63299 | 39300 ft | 516 kts | 78° |
| 2026-05-07 06:29 | 57.90341 | -31.49909 | 39298 ft | 517 kts | 78° |
| 2026-05-07 06:30 | 57.91279 | -31.36508 | 39316 ft | 517 kts | 78° |
| 2026-05-07 06:30 | 57.92202 | -31.23119 | 39296 ft | 516 kts | 78° |
| 2026-05-07 06:31 | 57.93110 | -31.09745 | 39295 ft | 516 kts | 79° |
| 2026-05-07 06:31 | 57.94004 | -30.96347 | 39295 ft | 516 kts | 79° |
| 2026-05-07 06:32 | 57.94885 | -30.82939 | 39295 ft | 516 kts | 79° |
| 2026-05-07 06:32 | 57.95752 | -30.69526 | 39295 ft | 516 kts | 79° |
| 2026-05-07 06:33 | 57.96603 | -30.56128 | 39291 ft | 515 kts | 79° |
| 2026-05-07 06:33 | 57.97441 | -30.42708 | 39283 ft | 515 kts | 79° |
| 2026-05-07 06:34 | 57.98264 | -30.29301 | 39286 ft | 515 kts | 79° |
| 2026-05-07 06:34 | 57.99068 | -30.15976 | 39282 ft | 515 kts | 79° |
| 2026-05-07 06:35 | 57.99863 | -30.02545 | 39291 ft | 515 kts | 80° |
| 2026-05-07 06:35 | 58.00550 | -29.89088 | 39278 ft | 516 kts | 82° |
| 2026-05-07 06:36 | 58.01013 | -29.75594 | 39278 ft | 516 kts | 83° |
| 2026-05-07 06:36 | 58.01458 | -29.62078 | 39274 ft | 516 kts | 83° |
| 2026-05-07 06:37 | 58.01925 | -29.48565 | 39276 ft | 516 kts | 82° |
| 2026-05-07 06:37 | 58.02394 | -29.35050 | 39274 ft | 516 kts | 82° |
| 2026-05-07 06:38 | 58.02850 | -29.21565 | 39268 ft | 515 kts | 83° |
| 2026-05-07 06:38 | 58.03291 | -29.08061 | 39265 ft | 515 kts | 83° |
| 2026-05-07 06:39 | 58.03717 | -28.94543 | 39268 ft | 516 kts | 83° |
| 2026-05-07 06:39 | 58.04129 | -28.81031 | 39262 ft | 516 kts | 83° |
| 2026-05-07 06:40 | 58.04526 | -28.67502 | 39267 ft | 516 kts | 83° |
| 2026-05-07 06:40 | 58.04906 | -28.54067 | 39257 ft | 516 kts | 83° |
| 2026-05-07 06:41 | 58.05277 | -28.40449 | 39254 ft | 516 kts | 83° |
| 2026-05-07 06:41 | 58.05631 | -28.26921 | 39254 ft | 516 kts | 83° |
| 2026-05-07 06:42 | 58.05969 | -28.13492 | 39249 ft | 516 kts | 84° |
| 2026-05-07 06:42 | 58.06296 | -27.99865 | 39254 ft | 515 kts | 84° |
| 2026-05-07 06:43 | 58.06605 | -27.86429 | 39242 ft | 515 kts | 84° |
| 2026-05-07 06:43 | 58.06901 | -27.72915 | 39241 ft | 515 kts | 84° |
| 2026-05-07 06:44 | 58.07184 | -27.59380 | 39234 ft | 515 kts | 84° |
| 2026-05-07 06:44 | 58.07452 | -27.45845 | 39234 ft | 516 kts | 84° |
| 2026-05-07 06:45 | 58.07706 | -27.32320 | 39234 ft | 515 kts | 84° |
| 2026-05-07 06:45 | 58.07945 | -27.18773 | 39232 ft | 516 kts | 85° |
| 2026-05-07 06:46 | 58.08170 | -27.05210 | 39228 ft | 516 kts | 85° |
| 2026-05-07 06:46 | 58.08381 | -26.91648 | 39219 ft | 516 kts | 85° |
| 2026-05-07 06:47 | 58.08577 | -26.78089 | 39217 ft | 516 kts | 85° |
| 2026-05-07 06:47 | 58.08759 | -26.64520 | 39222 ft | 516 kts | 85° |
| 2026-05-07 06:48 | 58.08927 | -26.50957 | 39214 ft | 516 kts | 85° |
| 2026-05-07 06:48 | 58.09080 | -26.37392 | 39208 ft | 516 kts | 85° |
| 2026-05-07 06:49 | 58.09219 | -26.23826 | 39209 ft | 516 kts | 86° |
| 2026-05-07 06:49 | 58.09343 | -26.10258 | 39204 ft | 516 kts | 86° |
| 2026-05-07 06:50 | 58.09453 | -25.96696 | 39202 ft | 516 kts | 86° |
| 2026-05-07 06:50 | 58.09549 | -25.83123 | 39194 ft | 517 kts | 86° |
| 2026-05-07 06:51 | 58.09629 | -25.69622 | 39193 ft | 517 kts | 86° |
| 2026-05-07 06:51 | 58.09696 | -25.55951 | 39195 ft | 517 kts | 86° |
| 2026-05-07 06:52 | 58.09749 | -25.42349 | 39196 ft | 517 kts | 86° |
| 2026-05-07 06:52 | 58.09787 | -25.28770 | 39182 ft | 517 kts | 87° |
| 2026-05-07 06:53 | 58.09810 | -25.15265 | 39173 ft | 517 kts | 87° |
| 2026-05-07 06:53 | 58.09819 | -25.01670 | 39177 ft | 517 kts | 87° |
| 2026-05-07 06:54 | 58.09813 | -24.88080 | 39183 ft | 517 kts | 87° |
| 2026-05-07 06:54 | 58.09793 | -24.74484 | 39166 ft | 517 kts | 87° |
| 2026-05-07 06:55 | 58.09759 | -24.60895 | 39162 ft | 517 kts | 88° |
| 2026-05-07 06:55 | 58.09710 | -24.47312 | 39147 ft | 517 kts | 88° |
| 2026-05-07 06:56 | 58.09647 | -24.33719 | 39161 ft | 517 kts | 88° |
| 2026-05-07 06:56 | 58.09569 | -24.20108 | 39155 ft | 518 kts | 88° |
| 2026-05-07 06:57 | 58.09476 | -24.06495 | 39153 ft | 518 kts | 88° |
| 2026-05-07 06:57 | 58.09369 | -23.92886 | 39141 ft | 517 kts | 89° |
| 2026-05-07 06:58 | 58.09248 | -23.79279 | 39139 ft | 517 kts | 89° |
| 2026-05-07 06:58 | 58.09113 | -23.65773 | 39133 ft | 517 kts | 89° |
| 2026-05-07 06:59 | 58.08963 | -23.52177 | 39126 ft | 517 kts | 89° |
| 2026-05-07 06:59 | 58.08797 | -23.38508 | 39120 ft | 517 kts | 89° |
| 2026-05-07 07:00 | 58.08619 | -23.24999 | 39126 ft | 518 kts | 89° |
| 2026-05-07 07:00 | 58.08425 | -23.11376 | 39119 ft | 519 kts | 89° |
| 2026-05-07 07:01 | 58.08217 | -22.97744 | 39104 ft | 519 kts | 90° |
| 2026-05-07 07:01 | 58.07993 | -22.84113 | 39101 ft | 520 kts | 90° |
| 2026-05-07 07:02 | 58.07755 | -22.70446 | 39102 ft | 520 kts | 90° |
| 2026-05-07 07:02 | 58.07502 | -22.56772 | 39097 ft | 521 kts | 90° |
| 2026-05-07 07:03 | 58.07233 | -22.43079 | 39095 ft | 522 kts | 90° |
| 2026-05-07 07:03 | 58.06998 | -22.31709 | 39083 ft | 522 kts | 90° |
| 2026-05-07 07:04 | 58.06703 | -22.18011 | 39087 ft | 522 kts | 90° |
| 2026-05-07 07:04 | 58.06342 | -22.02098 | 39073 ft | 522 kts | 91° |
| 2026-05-07 07:05 | 58.06015 | -21.88418 | 39074 ft | 522 kts | 91° |
| 2026-05-07 07:05 | 58.05729 | -21.76935 | 39059 ft | 522 kts | 91° |
| 2026-05-07 07:06 | 58.05374 | -21.63228 | 39062 ft | 522 kts | 91° |
| 2026-05-07 07:06 | 58.05006 | -21.49523 | 39047 ft | 523 kts | 92° |
| 2026-05-07 07:07 | 58.04623 | -21.35889 | 39051 ft | 525 kts | 91° |
| 2026-05-07 07:07 | 58.04223 | -21.22138 | 39039 ft | 526 kts | 92° |
| 2026-05-07 07:08 | 58.03804 | -21.08266 | 39033 ft | 526 kts | 92° |
| 2026-05-07 07:08 | 58.03375 | -20.94575 | 39018 ft | 525 kts | 92° |
| 2026-05-07 07:09 | 58.02929 | -20.80812 | 39018 ft | 525 kts | 92° |
| 2026-05-07 07:09 | 58.02469 | -20.67046 | 39008 ft | 526 kts | 92° |
| 2026-05-07 07:10 | 58.01993 | -20.53258 | 39009 ft | 527 kts | 93° |
| 2026-05-07 07:10 | 58.01502 | -20.39488 | 38995 ft | 527 kts | 93° |
| 2026-05-07 07:11 | 58.00996 | -20.25713 | 38992 ft | 527 kts | 93° |
| 2026-05-07 07:11 | 58.00474 | -20.11914 | 38978 ft | 527 kts | 93° |
| 2026-05-07 07:12 | 57.99547 | -19.98196 | 38975 ft | 528 kts | 105° |
| 2026-05-07 07:12 | 57.97420 | -19.84926 | 38962 ft | 531 kts | 109° |
| 2026-05-07 07:13 | 57.95073 | -19.71777 | 38956 ft | 529 kts | 109° |
| 2026-05-07 07:13 | 57.92687 | -19.58624 | 38948 ft | 532 kts | 109° |
| 2026-05-07 07:14 | 57.90311 | -19.45488 | 38941 ft | 531 kts | 109° |
| 2026-05-07 07:14 | 57.87923 | -19.32318 | 38924 ft | 530 kts | 109° |
| 2026-05-07 07:15 | 57.85540 | -19.19234 | 38912 ft | 531 kts | 109° |
| 2026-05-07 07:15 | 57.83138 | -19.06144 | 38920 ft | 528 kts | 110° |
| 2026-05-07 07:16 | 57.80724 | -18.93084 | 38905 ft | 532 kts | 110° |
| 2026-05-07 07:16 | 57.78294 | -18.80027 | 38904 ft | 529 kts | 110° |
| 2026-05-07 07:17 | 57.75850 | -18.67003 | 38903 ft | 532 kts | 110° |
| 2026-05-07 07:17 | 57.73397 | -18.54008 | 38897 ft | 529 kts | 110° |
| 2026-05-07 07:18 | 57.70926 | -18.40999 | 38890 ft | 530 kts | 110° |
| 2026-05-07 07:18 | 57.68466 | -18.28134 | 38879 ft | 530 kts | 111° |
| 2026-05-07 07:19 | 57.65958 | -18.15135 | 38867 ft | 531 kts | 111° |
| 2026-05-07 07:19 | 57.63446 | -18.02175 | 38868 ft | 532 kts | 111° |
| 2026-05-07 07:20 | 57.60917 | -17.89219 | 38860 ft | 529 kts | 111° |
| 2026-05-07 07:20 | 57.58378 | -17.76304 | 38849 ft | 532 kts | 111° |
| 2026-05-07 07:21 | 57.55828 | -17.63396 | 38844 ft | 528 kts | 111° |
| 2026-05-07 07:21 | 57.53267 | -17.50540 | 38823 ft | 532 kts | 112° |
| 2026-05-07 07:22 | 57.50690 | -17.37675 | 38825 ft | 529 kts | 112° |
| 2026-05-07 07:22 | 57.48096 | -17.24808 | 38804 ft | 532 kts | 112° |
| 2026-05-07 07:23 | 57.45501 | -17.12011 | 38798 ft | 529 kts | 112° |
| 2026-05-07 07:23 | 57.42886 | -16.99213 | 38806 ft | 530 kts | 112° |
| 2026-05-07 07:24 | 57.40273 | -16.86499 | 38777 ft | 528 kts | 113° |
| 2026-05-07 07:24 | 57.37637 | -16.73761 | 38781 ft | 528 kts | 112° |
| 2026-05-07 07:25 | 57.33690 | -16.54827 | 38760 ft | 529 kts | 113° |
| 2026-05-07 07:26 | 57.31031 | -16.42174 | 38763 ft | 526 kts | 114° |
| 2026-05-07 07:26 | 57.28358 | -16.29539 | 38747 ft | 528 kts | 114° |
| 2026-05-07 07:27 | 57.25682 | -16.16969 | 38743 ft | 525 kts | 114° |
| 2026-05-07 07:27 | 57.22994 | -16.04405 | 38732 ft | 526 kts | 114° |
| 2026-05-07 07:28 | 57.20298 | -15.91881 | 38728 ft | 525 kts | 114° |
| 2026-05-07 07:28 | 57.17582 | -15.79355 | 38726 ft | 525 kts | 114° |
| 2026-05-07 07:29 | 57.14870 | -15.66907 | 38722 ft | 523 kts | 114° |
| 2026-05-07 07:29 | 57.12139 | -15.54464 | 38722 ft | 524 kts | 114° |
| 2026-05-07 07:30 | 57.09413 | -15.42103 | 38709 ft | 520 kts | 114° |
| 2026-05-07 07:30 | 57.06684 | -15.29800 | 38714 ft | 520 kts | 114° |
| 2026-05-07 07:31 | 57.03943 | -15.17521 | 38704 ft | 519 kts | 115° |
| 2026-05-07 07:31 | 57.01209 | -15.05219 | 38697 ft | 520 kts | 112° |
| 2026-05-07 07:32 | 56.99653 | -14.92258 | 38711 ft | 523 kts | 98° |
| 2026-05-07 07:32 | 56.98943 | -14.79004 | 38704 ft | 522 kts | 96° |
| 2026-05-07 07:33 | 56.98350 | -14.65754 | 38702 ft | 521 kts | 96° |
| 2026-05-07 07:33 | 56.97731 | -14.52513 | 38699 ft | 521 kts | 96° |
| 2026-05-07 07:34 | 56.97073 | -14.39281 | 38700 ft | 521 kts | 96° |
| 2026-05-07 07:34 | 56.96393 | -14.26059 | 38698 ft | 521 kts | 97° |
| 2026-05-07 07:35 | 56.95699 | -14.12859 | 38688 ft | 520 kts | 97° |
| 2026-05-07 07:35 | 56.94145 | -14.00017 | 38690 ft | 514 kts | 114° |
| 2026-05-07 07:36 | 56.90668 | -13.88804 | 38697 ft | 509 kts | 127° |
| 2026-05-07 07:36 | 56.86538 | -13.78284 | 38684 ft | 509 kts | 129° |
| 2026-05-07 07:37 | 56.82329 | -13.67893 | 38705 ft | 508 kts | 129° |
| 2026-05-07 07:37 | 56.78135 | -13.57494 | 38705 ft | 509 kts | 129° |
| 2026-05-07 07:38 | 56.73951 | -13.47085 | 38713 ft | 509 kts | 129° |
| 2026-05-07 07:38 | 56.69772 | -13.36707 | 38711 ft | 508 kts | 129° |
| 2026-05-07 07:39 | 56.65586 | -13.26359 | 38713 ft | 508 kts | 129° |
| 2026-05-07 07:39 | 56.61392 | -13.16036 | 38723 ft | 508 kts | 129° |
| 2026-05-07 07:40 | 56.57184 | -13.05728 | 38726 ft | 508 kts | 129° |
| 2026-05-07 07:40 | 56.52975 | -12.95458 | 38724 ft | 508 kts | 129° |
| 2026-05-07 07:41 | 56.48756 | -12.85208 | 38735 ft | 507 kts | 129° |
| 2026-05-07 07:41 | 56.44529 | -12.74980 | 38727 ft | 507 kts | 130° |
| 2026-05-07 07:42 | 56.40325 | -12.64852 | 38746 ft | 507 kts | 130° |
| 2026-05-07 07:42 | 56.36057 | -12.54614 | 38741 ft | 507 kts | 130° |
| 2026-05-07 07:43 | 56.31841 | -12.44545 | 38750 ft | 507 kts | 130° |
| 2026-05-07 07:43 | 56.27583 | -12.34414 | 38752 ft | 507 kts | 130° |
| 2026-05-07 07:44 | 56.23326 | -12.24328 | 38744 ft | 507 kts | 130° |
| 2026-05-07 07:44 | 56.19055 | -12.14250 | 38758 ft | 507 kts | 130° |
| 2026-05-07 07:45 | 56.14775 | -12.04195 | 38764 ft | 507 kts | 130° |
| 2026-05-07 07:45 | 56.10489 | -11.94166 | 38766 ft | 507 kts | 130° |
| 2026-05-07 07:46 | 56.06196 | -11.84159 | 38772 ft | 507 kts | 130° |
| 2026-05-07 07:46 | 56.01894 | -11.74177 | 38780 ft | 506 kts | 131° |
| 2026-05-07 07:47 | 55.97588 | -11.64221 | 38779 ft | 506 kts | 131° |
| 2026-05-07 07:47 | 55.93273 | -11.54290 | 38789 ft | 506 kts | 131° |
| 2026-05-07 07:48 | 55.88957 | -11.44395 | 38785 ft | 505 kts | 131° |
| 2026-05-07 07:48 | 55.84635 | -11.34529 | 38795 ft | 505 kts | 131° |
| 2026-05-07 07:49 | 55.80313 | -11.24698 | 38794 ft | 504 kts | 131° |
| 2026-05-07 07:49 | 55.76000 | -11.14927 | 38802 ft | 500 kts | 131° |
| 2026-05-07 07:50 | 55.71710 | -11.05247 | 38804 ft | 498 kts | 132° |
| 2026-05-07 07:50 | 55.68144 | -10.97235 | 38804 ft | 498 kts | 132° |
| 2026-05-07 07:51 | 55.63854 | -10.87631 | 38804 ft | 498 kts | 132° |
| 2026-05-07 07:51 | 55.59547 | -10.78023 | 38812 ft | 498 kts | 132° |
| 2026-05-07 07:52 | 55.55230 | -10.68429 | 38812 ft | 498 kts | 132° |
| 2026-05-07 07:52 | 55.50912 | -10.58873 | 38819 ft | 497 kts | 132° |
| 2026-05-07 07:53 | 55.46609 | -10.49384 | 38821 ft | 496 kts | 132° |
| 2026-05-07 07:53 | 55.42315 | -10.39954 | 38829 ft | 495 kts | 132° |
| 2026-05-07 07:54 | 55.37999 | -10.30512 | 38829 ft | 495 kts | 133° |
| 2026-05-07 07:54 | 55.33672 | -10.21086 | 38833 ft | 495 kts | 132° |
| 2026-05-07 07:55 | 55.29346 | -10.11691 | 38840 ft | 493 kts | 133° |
| 2026-05-07 07:55 | 55.25027 | -10.02352 | 38848 ft | 493 kts | 133° |
| 2026-05-07 07:56 | 55.20683 | -9.93061 | 38840 ft | 493 kts | 133° |
| 2026-05-07 07:56 | 55.16272 | -9.83894 | 38856 ft | 492 kts | 134° |
| 2026-05-07 07:57 | 55.11855 | -9.74765 | 38851 ft | 491 kts | 133° |
| 2026-05-07 07:57 | 55.07445 | -9.65646 | 38860 ft | 491 kts | 133° |
| 2026-05-07 07:58 | 55.03068 | -9.56606 | 38861 ft | 491 kts | 133° |
| 2026-05-07 07:58 | 54.98656 | -9.47528 | 38880 ft | 491 kts | 134° |
| 2026-05-07 07:59 | 54.94239 | -9.38471 | 38886 ft | 491 kts | 134° |
| 2026-05-07 07:59 | 54.89806 | -9.29420 | 38873 ft | 491 kts | 133° |
| 2026-05-07 08:00 | 54.85373 | -9.20404 | 38878 ft | 491 kts | 133° |
| 2026-05-07 08:00 | 54.80934 | -9.11404 | 38892 ft | 491 kts | 133° |
| 2026-05-07 08:01 | 54.76482 | -9.02413 | 38892 ft | 491 kts | 134° |
| 2026-05-07 08:01 | 54.72124 | -8.93644 | 38889 ft | 491 kts | 134° |
| 2026-05-07 08:02 | 54.68103 | -8.85583 | 38872 ft | 491 kts | 133° |
| 2026-05-07 08:02 | 54.63633 | -8.76654 | 38897 ft | 491 kts | 133° |
| 2026-05-07 08:03 | 54.59161 | -8.67748 | 38904 ft | 491 kts | 133° |
| 2026-05-07 08:03 | 54.54686 | -8.58871 | 38912 ft | 491 kts | 133° |
| 2026-05-07 08:04 | 54.50266 | -8.50134 | 38919 ft | 491 kts | 133° |
| 2026-05-07 08:04 | 54.45880 | -8.41140 | 38888 ft | 492 kts | 127° |
| 2026-05-07 08:05 | 54.42440 | -8.30951 | 38910 ft | 494 kts | 120° |
| 2026-05-07 08:05 | 54.39296 | -8.20456 | 38906 ft | 494 kts | 118° |
| 2026-05-07 08:06 | 54.36187 | -8.09950 | 38918 ft | 494 kts | 119° |
| 2026-05-07 08:06 | 54.33053 | -7.99472 | 38917 ft | 494 kts | 119° |
| 2026-05-07 08:07 | 54.29900 | -7.89037 | 38922 ft | 493 kts | 119° |
| 2026-05-07 08:07 | 54.26732 | -7.78615 | 38930 ft | 493 kts | 119° |
| 2026-05-07 08:08 | 54.23559 | -7.68219 | 38928 ft | 493 kts | 119° |
| 2026-05-07 08:08 | 54.20407 | -7.57930 | 38936 ft | 492 kts | 119° |
| 2026-05-07 08:09 | 54.17224 | -7.47585 | 38935 ft | 492 kts | 119° |
| 2026-05-07 08:09 | 54.14031 | -7.37256 | 38943 ft | 492 kts | 119° |
| 2026-05-07 08:10 | 54.10832 | -7.26951 | 38942 ft | 491 kts | 120° |
| 2026-05-07 08:10 | 54.07628 | -7.16675 | 38949 ft | 491 kts | 120° |
| 2026-05-07 08:11 | 54.04412 | -7.06402 | 38951 ft | 491 kts | 120° |
| 2026-05-07 08:11 | 54.01189 | -6.96151 | 38952 ft | 491 kts | 120° |
| 2026-05-07 08:12 | 53.97967 | -6.85945 | 38955 ft | 490 kts | 120° |
| 2026-05-07 08:12 | 53.94732 | -6.75745 | 38954 ft | 490 kts | 120° |
| 2026-05-07 08:13 | 53.91495 | -6.65578 | 38958 ft | 490 kts | 120° |
| 2026-05-07 08:13 | 53.88246 | -6.55417 | 38957 ft | 490 kts | 120° |
| 2026-05-07 08:14 | 53.84990 | -6.45279 | 38962 ft | 490 kts | 120° |
| 2026-05-07 08:14 | 53.81731 | -6.35171 | 38975 ft | 490 kts | 120° |
| 2026-05-07 08:15 | 53.78459 | -6.25065 | 38975 ft | 489 kts | 120° |
| 2026-05-07 08:15 | 53.75182 | -6.14988 | 38969 ft | 489 kts | 120° |
| 2026-05-07 08:16 | 53.71898 | -6.04928 | 38971 ft | 489 kts | 120° |
| 2026-05-07 08:16 | 53.68624 | -5.94942 | 38978 ft | 489 kts | 120° |
| 2026-05-07 08:17 | 53.65305 | -5.84860 | 38975 ft | 489 kts | 121° |
| 2026-05-07 08:17 | 53.61998 | -5.74854 | 38981 ft | 489 kts | 121° |
| 2026-05-07 08:18 | 53.58699 | -5.64916 | 38982 ft | 489 kts | 121° |
| 2026-05-07 08:18 | 53.55479 | -5.54853 | 38983 ft | 490 kts | 115° |
| 2026-05-07 08:19 | 53.53658 | -5.43828 | 38985 ft | 493 kts | 97° |
| 2026-05-07 08:19 | 53.53194 | -5.32326 | 38981 ft | 494 kts | 94° |
| 2026-05-07 08:20 | 53.52948 | -5.20786 | 38980 ft | 494 kts | 93° |
| 2026-05-07 08:20 | 53.52690 | -5.09252 | 38989 ft | 494 kts | 94° |
| 2026-05-07 08:21 | 53.52336 | -4.97705 | 38985 ft | 494 kts | 94° |
| 2026-05-07 08:21 | 53.51944 | -4.86166 | 38982 ft | 494 kts | 95° |
| 2026-05-07 08:22 | 53.51558 | -4.74642 | 38991 ft | 494 kts | 95° |
| 2026-05-07 08:22 | 53.51162 | -4.63116 | 38991 ft | 494 kts | 95° |
| 2026-05-07 08:23 | 53.50757 | -4.51614 | 38994 ft | 493 kts | 95° |
| 2026-05-07 08:23 | 53.50343 | -4.40110 | 38994 ft | 493 kts | 95° |
| 2026-05-07 08:24 | 53.49918 | -4.28625 | 38998 ft | 493 kts | 95° |
| 2026-05-07 08:24 | 53.49482 | -4.17129 | 38996 ft | 493 kts | 95° |
| 2026-05-07 08:25 | 53.49035 | -4.05645 | 39002 ft | 492 kts | 95° |
| 2026-05-07 08:25 | 53.48139 | -3.94312 | 38999 ft | 489 kts | 106° |
| 2026-05-07 08:26 | 53.44986 | -3.78049 | 39005 ft | 488 kts | 110° |
| 2026-05-07 08:26 | 53.42734 | -3.67379 | 39009 ft | 488 kts | 111° |
| 2026-05-07 08:27 | 53.40187 | -3.56855 | 39012 ft | 487 kts | 116° |
| 2026-05-07 08:27 | 53.37282 | -3.46592 | 39021 ft | 487 kts | 117° |
| 2026-05-07 08:28 | 53.34323 | -3.36385 | 39026 ft | 487 kts | 117° |
| 2026-05-07 08:28 | 53.31359 | -3.26193 | 39038 ft | 487 kts | 117° |
| 2026-05-07 08:29 | 53.28388 | -3.16007 | 39042 ft | 487 kts | 117° |
| 2026-05-07 08:29 | 53.25411 | -3.05830 | 39039 ft | 487 kts | 117° |
| 2026-05-07 08:30 | 53.22428 | -2.95668 | 39048 ft | 487 kts | 118° |
| 2026-05-07 08:30 | 53.19438 | -2.85529 | 39047 ft | 487 kts | 118° |
| 2026-05-07 08:31 | 53.16442 | -2.75409 | 39046 ft | 487 kts | 117° |
| 2026-05-07 08:31 | 53.13438 | -2.65304 | 39050 ft | 487 kts | 118° |
| 2026-05-07 08:32 | 53.10427 | -2.55218 | 38748 ft | 486 kts | 118° |
| 2026-05-07 08:32 | 53.08926 | -2.50204 | 38336 ft | 482 kts | 118° |
| 2026-05-07 08:32 | 53.07436 | -2.45244 | 37737 ft | 478 kts | 117° |
| 2026-05-07 08:33 | 53.05969 | -2.40370 | 37131 ft | 475 kts | 117° |
| 2026-05-07 08:33 | 53.04470 | -2.35492 | 36497 ft | 472 kts | 119° |
| 2026-05-07 08:33 | 53.02607 | -2.31043 | 35885 ft | 468 kts | 131° |
| 2026-05-07 08:33 | 53.00185 | -2.27457 | 35247 ft | 467 kts | 144° |
| 2026-05-07 08:34 | 52.97472 | -2.24510 | 34551 ft | 468 kts | 146° |
| 2026-05-07 08:34 | 52.94711 | -2.21650 | 33808 ft | 468 kts | 146° |
| 2026-05-07 08:34 | 52.91968 | -2.18806 | 33322 ft | 461 kts | 146° |
| 2026-05-07 08:34 | 52.89269 | -2.16001 | 32836 ft | 455 kts | 146° |
| 2026-05-07 08:35 | 52.86633 | -2.13257 | 32349 ft | 450 kts | 146° |
| 2026-05-07 08:35 | 52.83995 | -2.10511 | 31864 ft | 445 kts | 146° |
| 2026-05-07 08:35 | 52.81387 | -2.07798 | 31384 ft | 440 kts | 146° |
| 2026-05-07 08:35 | 52.78809 | -2.05119 | 30907 ft | 435 kts | 146° |
| 2026-05-07 08:36 | 52.76257 | -2.02468 | 30445 ft | 431 kts | 146° |
| 2026-05-07 08:36 | 52.73736 | -1.99855 | 29959 ft | 426 kts | 146° |
| 2026-05-07 08:36 | 52.71237 | -1.97267 | 29468 ft | 421 kts | 146° |
| 2026-05-07 08:36 | 52.68775 | -1.94721 | 29017 ft | 415 kts | 146° |
| 2026-05-07 08:37 | 52.66344 | -1.92210 | 28572 ft | 409 kts | 146° |
| 2026-05-07 08:37 | 52.63941 | -1.89730 | 28138 ft | 407 kts | 146° |
| 2026-05-07 08:37 | 52.61548 | -1.87264 | 27706 ft | 405 kts | 147° |
| 2026-05-07 08:37 | 52.59938 | -1.85606 | 27407 ft | 404 kts | 147° |
| 2026-05-07 08:38 | 52.57563 | -1.83165 | 26975 ft | 401 kts | 147° |
| 2026-05-07 08:38 | 52.55208 | -1.80747 | 26540 ft | 398 kts | 147° |
| 2026-05-07 08:38 | 52.52859 | -1.78339 | 26113 ft | 396 kts | 147° |
| 2026-05-07 08:38 | 52.50535 | -1.75958 | 25680 ft | 393 kts | 147° |
| 2026-05-07 08:39 | 52.48220 | -1.73590 | 25230 ft | 390 kts | 147° |
| 2026-05-07 08:39 | 52.45924 | -1.71245 | 24814 ft | 387 kts | 147° |
| 2026-05-07 08:39 | 52.43644 | -1.68918 | 24385 ft | 385 kts | 147° |
| 2026-05-07 08:39 | 52.41381 | -1.66612 | 23942 ft | 382 kts | 148° |
| 2026-05-07 08:40 | 52.39129 | -1.64320 | 23500 ft | 380 kts | 148° |
| 2026-05-07 08:40 | 52.36923 | -1.62077 | 23040 ft | 377 kts | 148° |
| 2026-05-07 08:40 | 52.34670 | -1.59790 | 22612 ft | 375 kts | 148° |
| 2026-05-07 08:40 | 52.32464 | -1.57552 | 22165 ft | 373 kts | 148° |
| 2026-05-07 08:41 | 52.30295 | -1.55356 | 21741 ft | 370 kts | 148° |
| 2026-05-07 08:41 | 52.28111 | -1.53146 | 21332 ft | 368 kts | 148° |
| 2026-05-07 08:41 | 52.25935 | -1.50947 | 20897 ft | 366 kts | 149° |
| 2026-05-07 08:41 | 52.23779 | -1.48771 | 20473 ft | 364 kts | 149° |
| 2026-05-07 08:42 | 52.21675 | -1.46540 | 20063 ft | 363 kts | 144° |
| 2026-05-07 08:42 | 52.19687 | -1.43916 | 19763 ft | 376 kts | 140° |
| 2026-05-07 08:42 | 52.17678 | -1.41103 | 19489 ft | 383 kts | 140° |
| 2026-05-07 08:42 | 52.15661 | -1.38272 | 18961 ft | 382 kts | 140° |
| 2026-05-07 08:43 | 52.13651 | -1.35456 | 18540 ft | 380 kts | 141° |
| 2026-05-07 08:43 | 52.11648 | -1.32660 | 18119 ft | 378 kts | 141° |
| 2026-05-07 08:43 | 52.09654 | -1.29884 | 17721 ft | 376 kts | 140° |
| 2026-05-07 08:43 | 52.07667 | -1.27121 | 17342 ft | 374 kts | 140° |
| 2026-05-07 08:44 | 52.05696 | -1.24384 | 16959 ft | 372 kts | 141° |
| 2026-05-07 08:44 | 52.03735 | -1.21666 | 16579 ft | 370 kts | 140° |
| 2026-05-07 08:44 | 52.01781 | -1.18960 | 16187 ft | 367 kts | 141° |
| 2026-05-07 08:44 | 51.99838 | -1.16273 | 15807 ft | 365 kts | 141° |
| 2026-05-07 08:45 | 51.97910 | -1.13608 | 15438 ft | 363 kts | 141° |
| 2026-05-07 08:45 | 51.95991 | -1.10960 | 15146 ft | 361 kts | 140° |
| 2026-05-07 08:45 | 51.94082 | -1.08321 | 15076 ft | 361 kts | 141° |
| 2026-05-07 08:45 | 51.92201 | -1.05730 | 14949 ft | 348 kts | 140° |
| 2026-05-07 08:46 | 51.90388 | -1.03238 | 14732 ft | 336 kts | 141° |
| 2026-05-07 08:46 | 51.88638 | -1.00833 | 14516 ft | 325 kts | 141° |
| 2026-05-07 08:46 | 51.86946 | -0.98509 | 14312 ft | 314 kts | 141° |
| 2026-05-07 08:46 | 51.85390 | -0.96126 | 14074 ft | 304 kts | 128° |
| 2026-05-07 08:47 | 51.84324 | -0.93251 | 13842 ft | 290 kts | 117° |
| 2026-05-07 08:47 | 51.83463 | -0.90399 | 13404 ft | 277 kts | 116° |
| 2026-05-07 08:47 | 51.82633 | -0.87622 | 12850 ft | 271 kts | 116° |
| 2026-05-07 08:47 | 51.81810 | -0.84889 | 12356 ft | 270 kts | 116° |
| 2026-05-07 08:48 | 51.80987 | -0.82178 | 11992 ft | 268 kts | 116° |
| 2026-05-07 08:48 | 51.80165 | -0.79484 | 11576 ft | 267 kts | 116° |
| 2026-05-07 08:48 | 51.79343 | -0.76799 | 11205 ft | 265 kts | 116° |
| 2026-05-07 08:48 | 51.78525 | -0.74134 | 10813 ft | 265 kts | 116° |
| 2026-05-07 08:49 | 51.77710 | -0.71480 | 10445 ft | 263 kts | 116° |
| 2026-05-07 08:49 | 51.76895 | -0.68833 | 10076 ft | 262 kts | 116° |
| 2026-05-07 08:49 | 51.76086 | -0.66206 | 9688 ft | 260 kts | 116° |
| 2026-05-07 08:49 | 51.75282 | -0.63598 | 9283 ft | 259 kts | 116° |
| 2026-05-07 08:50 | 51.74491 | -0.61034 | 8893 ft | 258 kts | 117° |
| 2026-05-07 08:50 | 51.73655 | -0.58484 | 8506 ft | 256 kts | 124° |
| 2026-05-07 08:50 | 51.72447 | -0.56326 | 8485 ft | 264 kts | 143° |
| 2026-05-07 08:50 | 51.70820 | -0.55084 | 8302 ft | 259 kts | 169° |
| 2026-05-07 08:51 | 51.69064 | -0.55270 | 7897 ft | 254 kts | 202° |
| 2026-05-07 08:51 | 51.67692 | -0.56971 | 7573 ft | 247 kts | 232° |
| 2026-05-07 08:51 | 51.66712 | -0.59163 | 7407 ft | 236 kts | 236° |
| 2026-05-07 08:51 | 51.65796 | -0.61289 | 7267 ft | 226 kts | 235° |
| 2026-05-07 08:52 | 51.64903 | -0.63306 | 7086 ft | 218 kts | 234° |
| 2026-05-07 08:52 | 51.64016 | -0.65263 | 6816 ft | 214 kts | 233° |
| 2026-05-07 08:52 | 51.63138 | -0.67171 | 6520 ft | 210 kts | 233° |
| 2026-05-07 08:52 | 51.62268 | -0.69046 | 6034 ft | 209 kts | 233° |
| 2026-05-07 08:53 | 51.61398 | -0.70910 | 5588 ft | 209 kts | 233° |
| 2026-05-07 08:53 | 51.60515 | -0.72721 | 5456 ft | 201 kts | 229° |
| 2026-05-07 08:53 | 51.59553 | -0.74254 | 5295 ft | 193 kts | 220° |
| 2026-05-07 08:53 | 51.58469 | -0.75472 | 5061 ft | 188 kts | 210° |
| 2026-05-07 08:54 | 51.57302 | -0.76348 | 4807 ft | 183 kts | 201° |
| 2026-05-07 08:54 | 51.56086 | -0.76992 | 4438 ft | 186 kts | 198° |
| 2026-05-07 08:54 | 51.54843 | -0.77595 | 4112 ft | 186 kts | 198° |
| 2026-05-07 08:54 | 51.53614 | -0.78191 | 3900 ft | 183 kts | 198° |
| 2026-05-07 08:55 | 51.52363 | -0.78662 | 3762 ft | 185 kts | 188° |
| 2026-05-07 08:55 | 51.51085 | -0.78577 | 3669 ft | 186 kts | 170° |
| 2026-05-07 08:55 | 51.49885 | -0.77810 | 3583 ft | 187 kts | 151° |
| 2026-05-07 08:55 | 51.48815 | -0.76627 | 3505 ft | 187 kts | 145° |
| 2026-05-07 08:56 | 51.47994 | -0.75007 | 3474 ft | 190 kts | 113° |
| 2026-05-07 08:56 | 51.47645 | -0.72968 | 3241 ft | 191 kts | 95° |
| 2026-05-07 08:56 | 51.47677 | -0.70847 | 2942 ft | 190 kts | 89° |
| 2026-05-07 08:56 | 51.47691 | -0.68742 | 2653 ft | 187 kts | 92° |
| 2026-05-07 08:57 | 51.47683 | -0.66671 | 2394 ft | 185 kts | 91° |
| 2026-05-07 08:57 | 51.47691 | -0.64628 | 2137 ft | 180 kts | 91° |
| 2026-05-07 08:57 | 51.47698 | -0.62689 | 1879 ft | 167 kts | 91° |
| 2026-05-07 08:57 | 51.47704 | -0.60898 | 1662 ft | 157 kts | 91° |
| 2026-05-07 08:58 | 51.47709 | -0.59192 | 1455 ft | 148 kts | 91° |
| 2026-05-07 08:58 | 51.47715 | -0.57592 | 1237 ft | 139 kts | 91° |
| 2026-05-07 08:58 | 51.47721 | -0.56061 | 1053 ft | 136 kts | 92° |
| 2026-05-07 08:58 | 51.47726 | -0.54540 | 850 ft | 137 kts | 91° |
| 2026-05-07 08:59 | 51.47732 | -0.53030 | 679 ft | 138 kts | 91° |
| 2026-05-07 08:59 | 51.47739 | -0.51492 | 502 ft | 140 kts | 91° |
| 2026-05-07 08:59 | 51.47745 | -0.49938 | 287 ft | 138 kts | 92° |
| 2026-05-07 08:59 | 51.47749 | -0.48405 | 120 ft | 137 kts | 92° |
| 2026-05-07 09:00 | 51.47756 | -0.46944 | 98 ft | 119 kts | 90° |
| 2026-05-07 09:00 | 51.47760 | -0.45904 | 93 ft | 68 kts | 90° |
| 2026-05-07 09:00 | 51.47762 | -0.45424 | 91 ft | 23 kts | 90° |
| 2026-05-07 09:00 | 51.47758 | -0.45249 | 95 ft | 11 kts | 104° |
| 2026-05-07 09:01 | 51.47701 | -0.45178 | 98 ft | 12 kts | 171° |
| 2026-05-07 09:01 | 51.47626 | -0.45185 | 95 ft | 9 kts | 201° |
| 2026-05-07 09:01 | 51.47598 | -0.45279 | 95 ft | 11 kts | 266° |
| 2026-05-07 09:01 | 51.47597 | -0.45422 | 95 ft | 14 kts | 270° |
| 2026-05-07 09:02 | 51.47596 | -0.45603 | 95 ft | 18 kts | 269° |
| 2026-05-07 09:02 | 51.47594 | -0.45820 | 95 ft | 20 kts | 269° |
| 2026-05-07 09:02 | 51.47594 | -0.46028 | 95 ft | 20 kts | 270° |
| 2026-05-07 09:02 | 51.47593 | -0.46248 | 95 ft | 17 kts | 269° |
| 2026-05-07 09:03 | 51.47592 | -0.46449 | 95 ft | 19 kts | 270° |
| 2026-05-07 09:03 | 51.47592 | -0.46658 | 92 ft | 19 kts | 270° |
| 2026-05-07 09:03 | 51.47588 | -0.46833 | 94 ft | 13 kts | 261° |
| 2026-05-07 09:03 | 51.47551 | -0.46925 | 96 ft | 8 kts | 198° |
| 2026-05-07 09:04 | 51.47483 | -0.46909 | 96 ft | 12 kts | 168° |
| 2026-05-07 09:04 | 51.47402 | -0.46880 | 95 ft | 9 kts | 168° |
| 2026-05-07 09:04 | 51.47325 | -0.46868 | 93 ft | 13 kts | 177° |
| 2026-05-07 09:04 | 51.47235 | -0.46865 | 92 ft | 9 kts | 179° |
| 2026-05-07 09:05 | 51.47163 | -0.46864 | 93 ft | 12 kts | 179° |
| 2026-05-07 09:05 | 51.47093 | -0.46863 | 93 ft | 8 kts | 179° |
| 2026-05-07 09:05 | 51.47062 | -0.46837 | 96 ft | 5 kts | 125° |
| 2026-05-07 09:05 | 51.47055 | -0.46765 | 95 ft | 8 kts | 101° |
| 2026-05-07 09:06 | 51.47016 | -0.46688 | 96 ft | 6 kts | 141° |
| 2026-05-07 09:06 | 51.46988 | -0.46646 | 97 ft | 5 kts | 119° |
| 2026-05-07 09:06 | 51.46997 | -0.46589 | 97 ft | 7 kts | 63° |
| 2026-05-07 09:06 | 51.47009 | -0.46558 | 95 ft | 2 kts | 57° |
| 2026-05-07 09:07 | 51.47017 | -0.46540 | 97 ft | 1 kts | 56° |
| 2026-05-07 09:07 | 51.47019 | -0.46536 | 97 ft | 0 kts | 56° |